<?xml version="1.0" encoding="UTF-8" standalone="no" ?>
<gpx xmlns="http://www.topografix.com/GPX/1/1" xmlns:xsi="http://www.w3.org/2001/XMLSchema-instance" xsi:schemaLocation="http://www.topografix.com/GPX/1/1 http://www.topografix.com/GPX/1/1/gpx.xsd" version="1.1" creator="VisuGPX - https://www.visugpx.com">
  <metadata>
    <name>83 -V - Lorgues </name>
    <desc><![CDATA[83 -V - Lorgues : les Pailles 
08-10-21]]></desc>
  </metadata>
  <trk>
    <name><![CDATA[Lorgues les pailles 08-10-21]]></name>
    <desc><![CDATA[comment ...]]></desc>
    <extensions>
      <line xmlns="http://www.topografix.com/GPX/gpx_style/0/2">
        <width>4</width>
      </line>
    </extensions>
    <trkseg>
      <trkpt lat="43.48281" lon="6.41547">
        <ele>161</ele>
        <time>2021-10-08T11:47:41.000Z</time>
      </trkpt>
      <trkpt lat="43.48281" lon="6.41547">
        <ele>161</ele>
        <time>2021-10-08T11:47:42.000Z</time>
      </trkpt>
      <trkpt lat="43.4828" lon="6.41541">
        <ele>161</ele>
        <time>2021-10-08T11:47:57.000Z</time>
      </trkpt>
      <trkpt lat="43.48282" lon="6.41543">
        <ele>156</ele>
        <time>2021-10-08T11:55:38.000Z</time>
      </trkpt>
      <trkpt lat="43.48282" lon="6.4155">
        <ele>156</ele>
        <time>2021-10-08T11:55:44.000Z</time>
      </trkpt>
      <trkpt lat="43.48278" lon="6.41559">
        <ele>157</ele>
        <time>2021-10-08T11:56:09.000Z</time>
      </trkpt>
      <trkpt lat="43.48279" lon="6.41564">
        <ele>157</ele>
        <time>2021-10-08T11:56:16.000Z</time>
      </trkpt>
      <trkpt lat="43.48279" lon="6.41569">
        <ele>157</ele>
        <time>2021-10-08T11:56:32.000Z</time>
      </trkpt>
      <trkpt lat="43.48281" lon="6.41579">
        <ele>156</ele>
        <time>2021-10-08T11:56:43.000Z</time>
      </trkpt>
      <trkpt lat="43.48283" lon="6.41583">
        <ele>155</ele>
        <time>2021-10-08T11:56:47.000Z</time>
      </trkpt>
      <trkpt lat="43.48286" lon="6.41595">
        <ele>155</ele>
        <time>2021-10-08T11:56:56.000Z</time>
      </trkpt>
      <trkpt lat="43.48289" lon="6.41607">
        <ele>153</ele>
        <time>2021-10-08T11:57:04.000Z</time>
      </trkpt>
      <trkpt lat="43.48292" lon="6.41611">
        <ele>152</ele>
        <time>2021-10-08T11:57:09.000Z</time>
      </trkpt>
      <trkpt lat="43.48296" lon="6.41623">
        <ele>150</ele>
        <time>2021-10-08T11:57:19.000Z</time>
      </trkpt>
      <trkpt lat="43.48296" lon="6.4163">
        <ele>149</ele>
        <time>2021-10-08T11:57:24.000Z</time>
      </trkpt>
      <trkpt lat="43.48296" lon="6.41636">
        <ele>149</ele>
        <time>2021-10-08T11:57:32.000Z</time>
      </trkpt>
      <trkpt lat="43.48298" lon="6.41643">
        <ele>148</ele>
        <time>2021-10-08T11:57:40.000Z</time>
      </trkpt>
      <trkpt lat="43.483" lon="6.41649">
        <ele>148</ele>
        <time>2021-10-08T11:57:48.000Z</time>
      </trkpt>
      <trkpt lat="43.48304" lon="6.41654">
        <ele>147</ele>
        <time>2021-10-08T11:57:56.000Z</time>
      </trkpt>
      <trkpt lat="43.4831" lon="6.41665">
        <ele>145</ele>
        <time>2021-10-08T11:58:17.000Z</time>
      </trkpt>
      <trkpt lat="43.48312" lon="6.41672">
        <ele>144</ele>
        <time>2021-10-08T11:58:27.000Z</time>
      </trkpt>
      <trkpt lat="43.48315" lon="6.41679">
        <ele>145</ele>
        <time>2021-10-08T11:58:33.000Z</time>
      </trkpt>
      <trkpt lat="43.48316" lon="6.41685">
        <ele>144</ele>
        <time>2021-10-08T11:58:43.000Z</time>
      </trkpt>
      <trkpt lat="43.48327" lon="6.41709">
        <ele>141</ele>
        <time>2021-10-08T11:59:10.000Z</time>
      </trkpt>
      <trkpt lat="43.48331" lon="6.41714">
        <ele>141</ele>
        <time>2021-10-08T11:59:15.000Z</time>
      </trkpt>
      <trkpt lat="43.48342" lon="6.41713">
        <ele>141</ele>
        <time>2021-10-08T11:59:35.000Z</time>
      </trkpt>
      <trkpt lat="43.48351" lon="6.41707">
        <ele>139</ele>
        <time>2021-10-08T11:59:53.000Z</time>
      </trkpt>
      <trkpt lat="43.48372" lon="6.41704">
        <ele>139</ele>
        <time>2021-10-08T12:00:19.000Z</time>
      </trkpt>
      <trkpt lat="43.48376" lon="6.41706">
        <ele>138</ele>
        <time>2021-10-08T12:00:26.000Z</time>
      </trkpt>
      <trkpt lat="43.48387" lon="6.4171">
        <ele>139</ele>
        <time>2021-10-08T12:00:39.000Z</time>
      </trkpt>
      <trkpt lat="43.48393" lon="6.41711">
        <ele>139</ele>
        <time>2021-10-08T12:00:44.000Z</time>
      </trkpt>
      <trkpt lat="43.48397" lon="6.41713">
        <ele>141</ele>
        <time>2021-10-08T12:00:49.000Z</time>
      </trkpt>
      <trkpt lat="43.484" lon="6.41717">
        <ele>142</ele>
        <time>2021-10-08T12:00:56.000Z</time>
      </trkpt>
      <trkpt lat="43.48402" lon="6.41723">
        <ele>144</ele>
        <time>2021-10-08T12:01:04.000Z</time>
      </trkpt>
      <trkpt lat="43.48403" lon="6.4173">
        <ele>144</ele>
        <time>2021-10-08T12:01:14.000Z</time>
      </trkpt>
      <trkpt lat="43.48404" lon="6.41736">
        <ele>145</ele>
        <time>2021-10-08T12:01:24.000Z</time>
      </trkpt>
      <trkpt lat="43.48401" lon="6.41741">
        <ele>146</ele>
        <time>2021-10-08T12:01:35.000Z</time>
      </trkpt>
      <trkpt lat="43.48403" lon="6.41757">
        <ele>149</ele>
        <time>2021-10-08T12:01:55.000Z</time>
      </trkpt>
      <trkpt lat="43.48402" lon="6.41763">
        <ele>150</ele>
        <time>2021-10-08T12:02:05.000Z</time>
      </trkpt>
      <trkpt lat="43.48402" lon="6.4177">
        <ele>150</ele>
        <time>2021-10-08T12:02:15.000Z</time>
      </trkpt>
      <trkpt lat="43.48402" lon="6.41778">
        <ele>150</ele>
        <time>2021-10-08T12:02:24.000Z</time>
      </trkpt>
      <trkpt lat="43.48401" lon="6.41785">
        <ele>150</ele>
        <time>2021-10-08T12:02:32.000Z</time>
      </trkpt>
      <trkpt lat="43.48397" lon="6.4179">
        <ele>151</ele>
        <time>2021-10-08T12:02:45.000Z</time>
      </trkpt>
      <trkpt lat="43.48395" lon="6.41797">
        <ele>152</ele>
        <time>2021-10-08T12:03:00.000Z</time>
      </trkpt>
      <trkpt lat="43.48396" lon="6.41804">
        <ele>150</ele>
        <time>2021-10-08T12:03:13.000Z</time>
      </trkpt>
      <trkpt lat="43.48398" lon="6.41811">
        <ele>150</ele>
        <time>2021-10-08T12:03:19.000Z</time>
      </trkpt>
      <trkpt lat="43.48398" lon="6.41819">
        <ele>151</ele>
        <time>2021-10-08T12:03:26.000Z</time>
      </trkpt>
      <trkpt lat="43.484" lon="6.41826">
        <ele>150</ele>
        <time>2021-10-08T12:03:32.000Z</time>
      </trkpt>
      <trkpt lat="43.484" lon="6.41835">
        <ele>151</ele>
        <time>2021-10-08T12:03:41.000Z</time>
      </trkpt>
      <trkpt lat="43.484" lon="6.41842">
        <ele>151</ele>
        <time>2021-10-08T12:03:48.000Z</time>
      </trkpt>
      <trkpt lat="43.48399" lon="6.41849">
        <ele>151</ele>
        <time>2021-10-08T12:03:56.000Z</time>
      </trkpt>
      <trkpt lat="43.48399" lon="6.41855">
        <ele>151</ele>
        <time>2021-10-08T12:04:04.000Z</time>
      </trkpt>
      <trkpt lat="43.48398" lon="6.41861">
        <ele>153</ele>
        <time>2021-10-08T12:04:14.000Z</time>
      </trkpt>
      <trkpt lat="43.48395" lon="6.41866">
        <ele>154</ele>
        <time>2021-10-08T12:04:21.000Z</time>
      </trkpt>
      <trkpt lat="43.48391" lon="6.41869">
        <ele>153</ele>
        <time>2021-10-08T12:04:28.000Z</time>
      </trkpt>
      <trkpt lat="43.4838" lon="6.4188">
        <ele>152</ele>
        <time>2021-10-08T12:04:44.000Z</time>
      </trkpt>
      <trkpt lat="43.48376" lon="6.41884">
        <ele>153</ele>
        <time>2021-10-08T12:04:51.000Z</time>
      </trkpt>
      <trkpt lat="43.48373" lon="6.41888">
        <ele>154</ele>
        <time>2021-10-08T12:04:57.000Z</time>
      </trkpt>
      <trkpt lat="43.48369" lon="6.41892">
        <ele>154</ele>
        <time>2021-10-08T12:05:02.000Z</time>
      </trkpt>
      <trkpt lat="43.48367" lon="6.41895">
        <ele>154</ele>
        <time>2021-10-08T12:05:05.000Z</time>
      </trkpt>
      <trkpt lat="43.48364" lon="6.41898">
        <ele>155</ele>
        <time>2021-10-08T12:05:08.000Z</time>
      </trkpt>
      <trkpt lat="43.48352" lon="6.41906">
        <ele>159</ele>
        <time>2021-10-08T12:05:27.000Z</time>
      </trkpt>
      <trkpt lat="43.48349" lon="6.4191">
        <ele>159</ele>
        <time>2021-10-08T12:05:36.000Z</time>
      </trkpt>
      <trkpt lat="43.48341" lon="6.4192">
        <ele>162</ele>
        <time>2021-10-08T12:06:00.000Z</time>
      </trkpt>
      <trkpt lat="43.48339" lon="6.41923">
        <ele>164</ele>
        <time>2021-10-08T12:06:03.000Z</time>
      </trkpt>
      <trkpt lat="43.48337" lon="6.41925">
        <ele>166</ele>
        <time>2021-10-08T12:06:06.000Z</time>
      </trkpt>
      <trkpt lat="43.48334" lon="6.41929">
        <ele>169</ele>
        <time>2021-10-08T12:06:16.000Z</time>
      </trkpt>
      <trkpt lat="43.48332" lon="6.41933">
        <ele>170</ele>
        <time>2021-10-08T12:06:22.000Z</time>
      </trkpt>
      <trkpt lat="43.48333" lon="6.41936">
        <ele>173</ele>
        <time>2021-10-08T12:07:01.000Z</time>
      </trkpt>
      <trkpt lat="43.48333" lon="6.41939">
        <ele>173</ele>
        <time>2021-10-08T12:07:07.000Z</time>
      </trkpt>
      <trkpt lat="43.48332" lon="6.41942">
        <ele>173</ele>
        <time>2021-10-08T12:07:11.000Z</time>
      </trkpt>
      <trkpt lat="43.48331" lon="6.41946">
        <ele>172</ele>
        <time>2021-10-08T12:07:15.000Z</time>
      </trkpt>
      <trkpt lat="43.4833" lon="6.4195">
        <ele>172</ele>
        <time>2021-10-08T12:07:19.000Z</time>
      </trkpt>
      <trkpt lat="43.48329" lon="6.41958">
        <ele>172</ele>
        <time>2021-10-08T12:07:25.000Z</time>
      </trkpt>
      <trkpt lat="43.48328" lon="6.41962">
        <ele>172</ele>
        <time>2021-10-08T12:07:30.000Z</time>
      </trkpt>
      <trkpt lat="43.48324" lon="6.4197">
        <ele>173</ele>
        <time>2021-10-08T12:07:42.000Z</time>
      </trkpt>
      <trkpt lat="43.48322" lon="6.41974">
        <ele>173</ele>
        <time>2021-10-08T12:07:46.000Z</time>
      </trkpt>
      <trkpt lat="43.48322" lon="6.41978">
        <ele>174</ele>
        <time>2021-10-08T12:07:51.000Z</time>
      </trkpt>
      <trkpt lat="43.48321" lon="6.41986">
        <ele>175</ele>
        <time>2021-10-08T12:07:57.000Z</time>
      </trkpt>
      <trkpt lat="43.4832" lon="6.41988">
        <ele>175</ele>
        <time>2021-10-08T12:08:00.000Z</time>
      </trkpt>
      <trkpt lat="43.48317" lon="6.41993">
        <ele>175</ele>
        <time>2021-10-08T12:08:08.000Z</time>
      </trkpt>
      <trkpt lat="43.48316" lon="6.41996">
        <ele>175</ele>
        <time>2021-10-08T12:08:11.000Z</time>
      </trkpt>
      <trkpt lat="43.48315" lon="6.42">
        <ele>175</ele>
        <time>2021-10-08T12:08:15.000Z</time>
      </trkpt>
      <trkpt lat="43.48313" lon="6.42002">
        <ele>176</ele>
        <time>2021-10-08T12:08:18.000Z</time>
      </trkpt>
      <trkpt lat="43.4831" lon="6.42013">
        <ele>177</ele>
        <time>2021-10-08T12:08:29.000Z</time>
      </trkpt>
      <trkpt lat="43.4831" lon="6.4202">
        <ele>179</ele>
        <time>2021-10-08T12:08:35.000Z</time>
      </trkpt>
      <trkpt lat="43.48309" lon="6.42021">
        <ele>180</ele>
        <time>2021-10-08T12:09:17.000Z</time>
      </trkpt>
      <trkpt lat="43.48308" lon="6.42022">
        <ele>181</ele>
        <time>2021-10-08T12:09:28.000Z</time>
      </trkpt>
      <trkpt lat="43.48309" lon="6.42026">
        <ele>181</ele>
        <time>2021-10-08T12:10:55.000Z</time>
      </trkpt>
      <trkpt lat="43.48307" lon="6.42026">
        <ele>182</ele>
        <time>2021-10-08T12:11:28.000Z</time>
      </trkpt>
      <trkpt lat="43.48301" lon="6.42023">
        <ele>182</ele>
        <time>2021-10-08T12:11:36.000Z</time>
      </trkpt>
      <trkpt lat="43.48298" lon="6.42021">
        <ele>181</ele>
        <time>2021-10-08T12:11:40.000Z</time>
      </trkpt>
      <trkpt lat="43.48291" lon="6.42023">
        <ele>179</ele>
        <time>2021-10-08T12:11:51.000Z</time>
      </trkpt>
      <trkpt lat="43.48282" lon="6.42018">
        <ele>178</ele>
        <time>2021-10-08T12:12:02.000Z</time>
      </trkpt>
      <trkpt lat="43.48278" lon="6.42017">
        <ele>177</ele>
        <time>2021-10-08T12:12:07.000Z</time>
      </trkpt>
      <trkpt lat="43.48275" lon="6.42017">
        <ele>177</ele>
        <time>2021-10-08T12:12:13.000Z</time>
      </trkpt>
      <trkpt lat="43.48267" lon="6.42018">
        <ele>177</ele>
        <time>2021-10-08T12:12:24.000Z</time>
      </trkpt>
      <trkpt lat="43.48264" lon="6.42019">
        <ele>176</ele>
        <time>2021-10-08T12:12:29.000Z</time>
      </trkpt>
      <trkpt lat="43.48261" lon="6.42019">
        <ele>176</ele>
        <time>2021-10-08T12:12:34.000Z</time>
      </trkpt>
      <trkpt lat="43.48253" lon="6.42022">
        <ele>174</ele>
        <time>2021-10-08T12:12:45.000Z</time>
      </trkpt>
      <trkpt lat="43.4825" lon="6.42022">
        <ele>173</ele>
        <time>2021-10-08T12:12:50.000Z</time>
      </trkpt>
      <trkpt lat="43.48246" lon="6.42023">
        <ele>172</ele>
        <time>2021-10-08T12:12:56.000Z</time>
      </trkpt>
      <trkpt lat="43.48234" lon="6.42029">
        <ele>171</ele>
        <time>2021-10-08T12:13:10.000Z</time>
      </trkpt>
      <trkpt lat="43.48229" lon="6.42028">
        <ele>170</ele>
        <time>2021-10-08T12:13:15.000Z</time>
      </trkpt>
      <trkpt lat="43.48226" lon="6.42026">
        <ele>170</ele>
        <time>2021-10-08T12:13:21.000Z</time>
      </trkpt>
      <trkpt lat="43.48216" lon="6.42027">
        <ele>169</ele>
        <time>2021-10-08T12:13:32.000Z</time>
      </trkpt>
      <trkpt lat="43.48207" lon="6.42027">
        <ele>167</ele>
        <time>2021-10-08T12:13:41.000Z</time>
      </trkpt>
      <trkpt lat="43.48202" lon="6.42029">
        <ele>168</ele>
        <time>2021-10-08T12:13:46.000Z</time>
      </trkpt>
      <trkpt lat="43.48197" lon="6.42029">
        <ele>168</ele>
        <time>2021-10-08T12:13:51.000Z</time>
      </trkpt>
      <trkpt lat="43.48193" lon="6.42029">
        <ele>167</ele>
        <time>2021-10-08T12:13:55.000Z</time>
      </trkpt>
      <trkpt lat="43.48188" lon="6.4203">
        <ele>167</ele>
        <time>2021-10-08T12:14:00.000Z</time>
      </trkpt>
      <trkpt lat="43.48184" lon="6.42032">
        <ele>167</ele>
        <time>2021-10-08T12:14:04.000Z</time>
      </trkpt>
      <trkpt lat="43.48154" lon="6.42034">
        <ele>166</ele>
        <time>2021-10-08T12:14:33.000Z</time>
      </trkpt>
      <trkpt lat="43.48136" lon="6.42041">
        <ele>164</ele>
        <time>2021-10-08T12:14:49.000Z</time>
      </trkpt>
      <trkpt lat="43.4813" lon="6.42048">
        <ele>164</ele>
        <time>2021-10-08T12:14:58.000Z</time>
      </trkpt>
      <trkpt lat="43.48115" lon="6.42065">
        <ele>162</ele>
        <time>2021-10-08T12:15:14.000Z</time>
      </trkpt>
      <trkpt lat="43.48111" lon="6.42069">
        <ele>162</ele>
        <time>2021-10-08T12:15:18.000Z</time>
      </trkpt>
      <trkpt lat="43.48107" lon="6.4208">
        <ele>162</ele>
        <time>2021-10-08T12:15:27.000Z</time>
      </trkpt>
      <trkpt lat="43.48108" lon="6.42085">
        <ele>161</ele>
        <time>2021-10-08T12:15:31.000Z</time>
      </trkpt>
      <trkpt lat="43.48107" lon="6.42106">
        <ele>159</ele>
        <time>2021-10-08T12:15:47.000Z</time>
      </trkpt>
      <trkpt lat="43.48108" lon="6.42117">
        <ele>158</ele>
        <time>2021-10-08T12:15:57.000Z</time>
      </trkpt>
      <trkpt lat="43.48108" lon="6.42133">
        <ele>156</ele>
        <time>2021-10-08T12:16:07.000Z</time>
      </trkpt>
      <trkpt lat="43.48109" lon="6.42138">
        <ele>154</ele>
        <time>2021-10-08T12:16:11.000Z</time>
      </trkpt>
      <trkpt lat="43.48108" lon="6.42143">
        <ele>154</ele>
        <time>2021-10-08T12:16:16.000Z</time>
      </trkpt>
      <trkpt lat="43.48104" lon="6.4217">
        <ele>152</ele>
        <time>2021-10-08T12:16:35.000Z</time>
      </trkpt>
      <trkpt lat="43.48099" lon="6.42179">
        <ele>153</ele>
        <time>2021-10-08T12:16:46.000Z</time>
      </trkpt>
      <trkpt lat="43.48095" lon="6.42181">
        <ele>153</ele>
        <time>2021-10-08T12:16:51.000Z</time>
      </trkpt>
      <trkpt lat="43.4809" lon="6.42182">
        <ele>154</ele>
        <time>2021-10-08T12:16:56.000Z</time>
      </trkpt>
      <trkpt lat="43.48086" lon="6.42179">
        <ele>154</ele>
        <time>2021-10-08T12:17:02.000Z</time>
      </trkpt>
      <trkpt lat="43.48079" lon="6.42173">
        <ele>156</ele>
        <time>2021-10-08T12:17:09.000Z</time>
      </trkpt>
      <trkpt lat="43.48075" lon="6.42171">
        <ele>156</ele>
        <time>2021-10-08T12:17:13.000Z</time>
      </trkpt>
      <trkpt lat="43.48065" lon="6.42162">
        <ele>158</ele>
        <time>2021-10-08T12:17:25.000Z</time>
      </trkpt>
      <trkpt lat="43.48058" lon="6.42156">
        <ele>158</ele>
        <time>2021-10-08T12:17:33.000Z</time>
      </trkpt>
      <trkpt lat="43.4804" lon="6.42136">
        <ele>158</ele>
        <time>2021-10-08T12:17:54.000Z</time>
      </trkpt>
      <trkpt lat="43.48036" lon="6.42132">
        <ele>158</ele>
        <time>2021-10-08T12:18:01.000Z</time>
      </trkpt>
      <trkpt lat="43.48031" lon="6.42129">
        <ele>158</ele>
        <time>2021-10-08T12:18:08.000Z</time>
      </trkpt>
      <trkpt lat="43.48028" lon="6.42126">
        <ele>157</ele>
        <time>2021-10-08T12:18:12.000Z</time>
      </trkpt>
      <trkpt lat="43.48025" lon="6.42123">
        <ele>156</ele>
        <time>2021-10-08T12:18:15.000Z</time>
      </trkpt>
      <trkpt lat="43.48014" lon="6.42117">
        <ele>155</ele>
        <time>2021-10-08T12:18:24.000Z</time>
      </trkpt>
      <trkpt lat="43.48007" lon="6.42114">
        <ele>156</ele>
        <time>2021-10-08T12:18:30.000Z</time>
      </trkpt>
      <trkpt lat="43.47999" lon="6.42113">
        <ele>156</ele>
        <time>2021-10-08T12:18:37.000Z</time>
      </trkpt>
      <trkpt lat="43.47988" lon="6.42112">
        <ele>156</ele>
        <time>2021-10-08T12:18:46.000Z</time>
      </trkpt>
      <trkpt lat="43.47971" lon="6.42115">
        <ele>157</ele>
        <time>2021-10-08T12:19:01.000Z</time>
      </trkpt>
      <trkpt lat="43.47956" lon="6.42125">
        <ele>156</ele>
        <time>2021-10-08T12:19:16.000Z</time>
      </trkpt>
      <trkpt lat="43.47951" lon="6.42126">
        <ele>156</ele>
        <time>2021-10-08T12:19:20.000Z</time>
      </trkpt>
      <trkpt lat="43.47947" lon="6.42129">
        <ele>156</ele>
        <time>2021-10-08T12:19:24.000Z</time>
      </trkpt>
      <trkpt lat="43.47933" lon="6.42148">
        <ele>156</ele>
        <time>2021-10-08T12:19:53.000Z</time>
      </trkpt>
      <trkpt lat="43.4793" lon="6.42151">
        <ele>158</ele>
        <time>2021-10-08T12:20:02.000Z</time>
      </trkpt>
      <trkpt lat="43.47924" lon="6.4216">
        <ele>160</ele>
        <time>2021-10-08T12:20:18.000Z</time>
      </trkpt>
      <trkpt lat="43.47921" lon="6.42164">
        <ele>160</ele>
        <time>2021-10-08T12:20:23.000Z</time>
      </trkpt>
      <trkpt lat="43.47915" lon="6.42177">
        <ele>163</ele>
        <time>2021-10-08T12:20:38.000Z</time>
      </trkpt>
      <trkpt lat="43.4791" lon="6.4219">
        <ele>166</ele>
        <time>2021-10-08T12:20:50.000Z</time>
      </trkpt>
      <trkpt lat="43.47908" lon="6.42195">
        <ele>167</ele>
        <time>2021-10-08T12:20:54.000Z</time>
      </trkpt>
      <trkpt lat="43.47902" lon="6.42208">
        <ele>167</ele>
        <time>2021-10-08T12:21:06.000Z</time>
      </trkpt>
      <trkpt lat="43.47902" lon="6.42213">
        <ele>168</ele>
        <time>2021-10-08T12:21:10.000Z</time>
      </trkpt>
      <trkpt lat="43.47899" lon="6.42227">
        <ele>168</ele>
        <time>2021-10-08T12:21:22.000Z</time>
      </trkpt>
      <trkpt lat="43.47898" lon="6.4225">
        <ele>168</ele>
        <time>2021-10-08T12:21:41.000Z</time>
      </trkpt>
      <trkpt lat="43.47892" lon="6.42262">
        <ele>168</ele>
        <time>2021-10-08T12:21:50.000Z</time>
      </trkpt>
      <trkpt lat="43.47893" lon="6.42265">
        <ele>172</ele>
        <time>2021-10-08T12:22:06.000Z</time>
      </trkpt>
      <trkpt lat="43.47896" lon="6.42263">
        <ele>173</ele>
        <time>2021-10-08T12:22:11.000Z</time>
      </trkpt>
      <trkpt lat="43.47895" lon="6.42262">
        <ele>175</ele>
        <time>2021-10-08T12:23:06.000Z</time>
      </trkpt>
      <trkpt lat="43.47881" lon="6.42283">
        <ele>175</ele>
        <time>2021-10-08T12:23:30.000Z</time>
      </trkpt>
      <trkpt lat="43.47874" lon="6.423">
        <ele>172</ele>
        <time>2021-10-08T12:23:47.000Z</time>
      </trkpt>
      <trkpt lat="43.47872" lon="6.42308">
        <ele>171</ele>
        <time>2021-10-08T12:23:56.000Z</time>
      </trkpt>
      <trkpt lat="43.4787" lon="6.42316">
        <ele>173</ele>
        <time>2021-10-08T12:24:06.000Z</time>
      </trkpt>
      <trkpt lat="43.47869" lon="6.42326">
        <ele>173</ele>
        <time>2021-10-08T12:24:14.000Z</time>
      </trkpt>
      <trkpt lat="43.4787" lon="6.42335">
        <ele>172</ele>
        <time>2021-10-08T12:24:20.000Z</time>
      </trkpt>
      <trkpt lat="43.4787" lon="6.4235">
        <ele>172</ele>
        <time>2021-10-08T12:24:31.000Z</time>
      </trkpt>
      <trkpt lat="43.4787" lon="6.4236">
        <ele>172</ele>
        <time>2021-10-08T12:24:39.000Z</time>
      </trkpt>
      <trkpt lat="43.4787" lon="6.42371">
        <ele>171</ele>
        <time>2021-10-08T12:24:47.000Z</time>
      </trkpt>
      <trkpt lat="43.47869" lon="6.4238">
        <ele>169</ele>
        <time>2021-10-08T12:24:57.000Z</time>
      </trkpt>
      <trkpt lat="43.47869" lon="6.42384">
        <ele>168</ele>
        <time>2021-10-08T12:25:03.000Z</time>
      </trkpt>
      <trkpt lat="43.47867" lon="6.42407">
        <ele>172</ele>
        <time>2021-10-08T12:25:26.000Z</time>
      </trkpt>
      <trkpt lat="43.47864" lon="6.42432">
        <ele>174</ele>
        <time>2021-10-08T12:25:51.000Z</time>
      </trkpt>
      <trkpt lat="43.47864" lon="6.42437">
        <ele>175</ele>
        <time>2021-10-08T12:25:57.000Z</time>
      </trkpt>
      <trkpt lat="43.4786" lon="6.42473">
        <ele>180</ele>
        <time>2021-10-08T12:26:28.000Z</time>
      </trkpt>
      <trkpt lat="43.47859" lon="6.42488">
        <ele>181</ele>
        <time>2021-10-08T12:26:42.000Z</time>
      </trkpt>
      <trkpt lat="43.47857" lon="6.42493">
        <ele>181</ele>
        <time>2021-10-08T12:26:46.000Z</time>
      </trkpt>
      <trkpt lat="43.47857" lon="6.42505">
        <ele>181</ele>
        <time>2021-10-08T12:26:55.000Z</time>
      </trkpt>
      <trkpt lat="43.47854" lon="6.42514">
        <ele>181</ele>
        <time>2021-10-08T12:27:03.000Z</time>
      </trkpt>
      <trkpt lat="43.47855" lon="6.42521">
        <ele>182</ele>
        <time>2021-10-08T12:27:07.000Z</time>
      </trkpt>
      <trkpt lat="43.47854" lon="6.42537">
        <ele>180</ele>
        <time>2021-10-08T12:27:21.000Z</time>
      </trkpt>
      <trkpt lat="43.47853" lon="6.42541">
        <ele>179</ele>
        <time>2021-10-08T12:27:25.000Z</time>
      </trkpt>
      <trkpt lat="43.47851" lon="6.42565">
        <ele>178</ele>
        <time>2021-10-08T12:27:46.000Z</time>
      </trkpt>
      <trkpt lat="43.47849" lon="6.42577">
        <ele>178</ele>
        <time>2021-10-08T12:27:59.000Z</time>
      </trkpt>
      <trkpt lat="43.4785" lon="6.42583">
        <ele>178</ele>
        <time>2021-10-08T12:28:06.000Z</time>
      </trkpt>
      <trkpt lat="43.47846" lon="6.42581">
        <ele>185</ele>
        <time>2021-10-08T12:30:06.000Z</time>
      </trkpt>
      <trkpt lat="43.4783" lon="6.42581">
        <ele>185</ele>
        <time>2021-10-08T12:30:29.000Z</time>
      </trkpt>
      <trkpt lat="43.47825" lon="6.42582">
        <ele>185</ele>
        <time>2021-10-08T12:30:36.000Z</time>
      </trkpt>
      <trkpt lat="43.47821" lon="6.42582">
        <ele>185</ele>
        <time>2021-10-08T12:30:41.000Z</time>
      </trkpt>
      <trkpt lat="43.4781" lon="6.42586">
        <ele>185</ele>
        <time>2021-10-08T12:30:56.000Z</time>
      </trkpt>
      <trkpt lat="43.47806" lon="6.42586">
        <ele>185</ele>
        <time>2021-10-08T12:31:00.000Z</time>
      </trkpt>
      <trkpt lat="43.47798" lon="6.42587">
        <ele>186</ele>
        <time>2021-10-08T12:31:11.000Z</time>
      </trkpt>
      <trkpt lat="43.47791" lon="6.42584">
        <ele>186</ele>
        <time>2021-10-08T12:31:21.000Z</time>
      </trkpt>
      <trkpt lat="43.47783" lon="6.42584">
        <ele>186</ele>
        <time>2021-10-08T12:31:32.000Z</time>
      </trkpt>
      <trkpt lat="43.47779" lon="6.42585">
        <ele>186</ele>
        <time>2021-10-08T12:31:38.000Z</time>
      </trkpt>
      <trkpt lat="43.47775" lon="6.42584">
        <ele>186</ele>
        <time>2021-10-08T12:31:43.000Z</time>
      </trkpt>
      <trkpt lat="43.4777" lon="6.42584">
        <ele>185</ele>
        <time>2021-10-08T12:31:48.000Z</time>
      </trkpt>
      <trkpt lat="43.47765" lon="6.42583">
        <ele>185</ele>
        <time>2021-10-08T12:31:55.000Z</time>
      </trkpt>
      <trkpt lat="43.47733" lon="6.42582">
        <ele>188</ele>
        <time>2021-10-08T12:32:30.000Z</time>
      </trkpt>
      <trkpt lat="43.47729" lon="6.42583">
        <ele>189</ele>
        <time>2021-10-08T12:32:36.000Z</time>
      </trkpt>
      <trkpt lat="43.47724" lon="6.42585">
        <ele>190</ele>
        <time>2021-10-08T12:32:41.000Z</time>
      </trkpt>
      <trkpt lat="43.47716" lon="6.42585">
        <ele>191</ele>
        <time>2021-10-08T12:32:52.000Z</time>
      </trkpt>
      <trkpt lat="43.47712" lon="6.42585">
        <ele>191</ele>
        <time>2021-10-08T12:32:56.000Z</time>
      </trkpt>
      <trkpt lat="43.47704" lon="6.42588">
        <ele>192</ele>
        <time>2021-10-08T12:33:04.000Z</time>
      </trkpt>
      <trkpt lat="43.47696" lon="6.42588">
        <ele>191</ele>
        <time>2021-10-08T12:33:12.000Z</time>
      </trkpt>
      <trkpt lat="43.47667" lon="6.42593">
        <ele>193</ele>
        <time>2021-10-08T12:33:44.000Z</time>
      </trkpt>
      <trkpt lat="43.47659" lon="6.42596">
        <ele>192</ele>
        <time>2021-10-08T12:33:54.000Z</time>
      </trkpt>
      <trkpt lat="43.4765" lon="6.42594">
        <ele>192</ele>
        <time>2021-10-08T12:34:05.000Z</time>
      </trkpt>
      <trkpt lat="43.47646" lon="6.42595">
        <ele>193</ele>
        <time>2021-10-08T12:34:09.000Z</time>
      </trkpt>
      <trkpt lat="43.47642" lon="6.42594">
        <ele>194</ele>
        <time>2021-10-08T12:34:14.000Z</time>
      </trkpt>
      <trkpt lat="43.47633" lon="6.42593">
        <ele>195</ele>
        <time>2021-10-08T12:34:24.000Z</time>
      </trkpt>
      <trkpt lat="43.4763" lon="6.42593">
        <ele>195</ele>
        <time>2021-10-08T12:34:27.000Z</time>
      </trkpt>
      <trkpt lat="43.47626" lon="6.42591">
        <ele>195</ele>
        <time>2021-10-08T12:34:32.000Z</time>
      </trkpt>
      <trkpt lat="43.47622" lon="6.42589">
        <ele>194</ele>
        <time>2021-10-08T12:34:37.000Z</time>
      </trkpt>
      <trkpt lat="43.47613" lon="6.4259">
        <ele>195</ele>
        <time>2021-10-08T12:34:48.000Z</time>
      </trkpt>
      <trkpt lat="43.47609" lon="6.42591">
        <ele>195</ele>
        <time>2021-10-08T12:34:52.000Z</time>
      </trkpt>
      <trkpt lat="43.47597" lon="6.42592">
        <ele>196</ele>
        <time>2021-10-08T12:35:04.000Z</time>
      </trkpt>
      <trkpt lat="43.47589" lon="6.42591">
        <ele>197</ele>
        <time>2021-10-08T12:35:13.000Z</time>
      </trkpt>
      <trkpt lat="43.4758" lon="6.42592">
        <ele>198</ele>
        <time>2021-10-08T12:35:22.000Z</time>
      </trkpt>
      <trkpt lat="43.47577" lon="6.42589">
        <ele>198</ele>
        <time>2021-10-08T12:35:26.000Z</time>
      </trkpt>
      <trkpt lat="43.47568" lon="6.42588">
        <ele>198</ele>
        <time>2021-10-08T12:35:37.000Z</time>
      </trkpt>
      <trkpt lat="43.47565" lon="6.42586">
        <ele>199</ele>
        <time>2021-10-08T12:35:42.000Z</time>
      </trkpt>
      <trkpt lat="43.47558" lon="6.42582">
        <ele>201</ele>
        <time>2021-10-08T12:35:54.000Z</time>
      </trkpt>
      <trkpt lat="43.47546" lon="6.42574">
        <ele>204</ele>
        <time>2021-10-08T12:36:09.000Z</time>
      </trkpt>
      <trkpt lat="43.47543" lon="6.42571">
        <ele>206</ele>
        <time>2021-10-08T12:36:17.000Z</time>
      </trkpt>
      <trkpt lat="43.47535" lon="6.4257">
        <ele>207</ele>
        <time>2021-10-08T12:36:26.000Z</time>
      </trkpt>
      <trkpt lat="43.47529" lon="6.42569">
        <ele>208</ele>
        <time>2021-10-08T12:36:31.000Z</time>
      </trkpt>
      <trkpt lat="43.47525" lon="6.42569">
        <ele>208</ele>
        <time>2021-10-08T12:36:35.000Z</time>
      </trkpt>
      <trkpt lat="43.47521" lon="6.42568">
        <ele>208</ele>
        <time>2021-10-08T12:36:39.000Z</time>
      </trkpt>
      <trkpt lat="43.47502" lon="6.42561">
        <ele>211</ele>
        <time>2021-10-08T12:37:02.000Z</time>
      </trkpt>
      <trkpt lat="43.47497" lon="6.42561">
        <ele>211</ele>
        <time>2021-10-08T12:37:07.000Z</time>
      </trkpt>
      <trkpt lat="43.47494" lon="6.4256">
        <ele>212</ele>
        <time>2021-10-08T12:37:11.000Z</time>
      </trkpt>
      <trkpt lat="43.47489" lon="6.42558">
        <ele>212</ele>
        <time>2021-10-08T12:37:15.000Z</time>
      </trkpt>
      <trkpt lat="43.47485" lon="6.42558">
        <ele>213</ele>
        <time>2021-10-08T12:37:19.000Z</time>
      </trkpt>
      <trkpt lat="43.4748" lon="6.42556">
        <ele>213</ele>
        <time>2021-10-08T12:37:23.000Z</time>
      </trkpt>
      <trkpt lat="43.47476" lon="6.42555">
        <ele>214</ele>
        <time>2021-10-08T12:37:28.000Z</time>
      </trkpt>
      <trkpt lat="43.47468" lon="6.42555">
        <ele>215</ele>
        <time>2021-10-08T12:37:36.000Z</time>
      </trkpt>
      <trkpt lat="43.4746" lon="6.42551">
        <ele>215</ele>
        <time>2021-10-08T12:37:46.000Z</time>
      </trkpt>
      <trkpt lat="43.47452" lon="6.42549">
        <ele>215</ele>
        <time>2021-10-08T12:37:55.000Z</time>
      </trkpt>
      <trkpt lat="43.47449" lon="6.42549">
        <ele>216</ele>
        <time>2021-10-08T12:37:59.000Z</time>
      </trkpt>
      <trkpt lat="43.47446" lon="6.4255">
        <ele>216</ele>
        <time>2021-10-08T12:38:10.000Z</time>
      </trkpt>
      <trkpt lat="43.47443" lon="6.4255">
        <ele>215</ele>
        <time>2021-10-08T12:38:14.000Z</time>
      </trkpt>
      <trkpt lat="43.47439" lon="6.42551">
        <ele>215</ele>
        <time>2021-10-08T12:38:19.000Z</time>
      </trkpt>
      <trkpt lat="43.47436" lon="6.4255">
        <ele>214</ele>
        <time>2021-10-08T12:38:25.000Z</time>
      </trkpt>
      <trkpt lat="43.4743" lon="6.4255">
        <ele>219</ele>
        <time>2021-10-08T12:38:51.000Z</time>
      </trkpt>
      <trkpt lat="43.47428" lon="6.42553">
        <ele>220</ele>
        <time>2021-10-08T12:39:12.000Z</time>
      </trkpt>
      <trkpt lat="43.47425" lon="6.42551">
        <ele>222</ele>
        <time>2021-10-08T12:39:45.000Z</time>
      </trkpt>
      <trkpt lat="43.47423" lon="6.4255">
        <ele>223</ele>
        <time>2021-10-08T12:39:48.000Z</time>
      </trkpt>
      <trkpt lat="43.47413" lon="6.42551">
        <ele>221</ele>
        <time>2021-10-08T12:40:04.000Z</time>
      </trkpt>
      <trkpt lat="43.47409" lon="6.42551">
        <ele>220</ele>
        <time>2021-10-08T12:40:07.000Z</time>
      </trkpt>
      <trkpt lat="43.47407" lon="6.4255">
        <ele>220</ele>
        <time>2021-10-08T12:40:10.000Z</time>
      </trkpt>
      <trkpt lat="43.47401" lon="6.42551">
        <ele>219</ele>
        <time>2021-10-08T12:40:17.000Z</time>
      </trkpt>
      <trkpt lat="43.47394" lon="6.4255">
        <ele>218</ele>
        <time>2021-10-08T12:40:25.000Z</time>
      </trkpt>
      <trkpt lat="43.47391" lon="6.4255">
        <ele>217</ele>
        <time>2021-10-08T12:40:29.000Z</time>
      </trkpt>
      <trkpt lat="43.47387" lon="6.4255">
        <ele>217</ele>
        <time>2021-10-08T12:40:32.000Z</time>
      </trkpt>
      <trkpt lat="43.47364" lon="6.4255">
        <ele>217</ele>
        <time>2021-10-08T12:40:52.000Z</time>
      </trkpt>
      <trkpt lat="43.47361" lon="6.42549">
        <ele>217</ele>
        <time>2021-10-08T12:40:55.000Z</time>
      </trkpt>
      <trkpt lat="43.47358" lon="6.42549">
        <ele>217</ele>
        <time>2021-10-08T12:40:58.000Z</time>
      </trkpt>
      <trkpt lat="43.47354" lon="6.42551">
        <ele>216</ele>
        <time>2021-10-08T12:41:02.000Z</time>
      </trkpt>
      <trkpt lat="43.47351" lon="6.42552">
        <ele>216</ele>
        <time>2021-10-08T12:41:05.000Z</time>
      </trkpt>
      <trkpt lat="43.47348" lon="6.42551">
        <ele>215</ele>
        <time>2021-10-08T12:41:09.000Z</time>
      </trkpt>
      <trkpt lat="43.47342" lon="6.42551">
        <ele>216</ele>
        <time>2021-10-08T12:41:17.000Z</time>
      </trkpt>
      <trkpt lat="43.47338" lon="6.4255">
        <ele>216</ele>
        <time>2021-10-08T12:41:21.000Z</time>
      </trkpt>
      <trkpt lat="43.47335" lon="6.4255">
        <ele>216</ele>
        <time>2021-10-08T12:41:24.000Z</time>
      </trkpt>
      <trkpt lat="43.47332" lon="6.4255">
        <ele>216</ele>
        <time>2021-10-08T12:41:28.000Z</time>
      </trkpt>
      <trkpt lat="43.47325" lon="6.42551">
        <ele>216</ele>
        <time>2021-10-08T12:41:34.000Z</time>
      </trkpt>
      <trkpt lat="43.47322" lon="6.42551">
        <ele>216</ele>
        <time>2021-10-08T12:41:37.000Z</time>
      </trkpt>
      <trkpt lat="43.47313" lon="6.42546">
        <ele>217</ele>
        <time>2021-10-08T12:41:46.000Z</time>
      </trkpt>
      <trkpt lat="43.47311" lon="6.42541">
        <ele>217</ele>
        <time>2021-10-08T12:41:51.000Z</time>
      </trkpt>
      <trkpt lat="43.47312" lon="6.42538">
        <ele>218</ele>
        <time>2021-10-08T12:41:54.000Z</time>
      </trkpt>
      <trkpt lat="43.47316" lon="6.42533">
        <ele>218</ele>
        <time>2021-10-08T12:42:00.000Z</time>
      </trkpt>
      <trkpt lat="43.47318" lon="6.4253">
        <ele>218</ele>
        <time>2021-10-08T12:42:03.000Z</time>
      </trkpt>
      <trkpt lat="43.4732" lon="6.42527">
        <ele>218</ele>
        <time>2021-10-08T12:42:06.000Z</time>
      </trkpt>
      <trkpt lat="43.47326" lon="6.42517">
        <ele>218</ele>
        <time>2021-10-08T12:42:15.000Z</time>
      </trkpt>
      <trkpt lat="43.47327" lon="6.42514">
        <ele>218</ele>
        <time>2021-10-08T12:42:18.000Z</time>
      </trkpt>
      <trkpt lat="43.47336" lon="6.42502">
        <ele>218</ele>
        <time>2021-10-08T12:42:32.000Z</time>
      </trkpt>
      <trkpt lat="43.47337" lon="6.425">
        <ele>218</ele>
        <time>2021-10-08T12:42:34.000Z</time>
      </trkpt>
      <trkpt lat="43.4734" lon="6.42494">
        <ele>217</ele>
        <time>2021-10-08T12:42:40.000Z</time>
      </trkpt>
      <trkpt lat="43.47341" lon="6.42491">
        <ele>217</ele>
        <time>2021-10-08T12:42:44.000Z</time>
      </trkpt>
      <trkpt lat="43.47341" lon="6.42487">
        <ele>216</ele>
        <time>2021-10-08T12:42:49.000Z</time>
      </trkpt>
      <trkpt lat="43.47342" lon="6.42482">
        <ele>214</ele>
        <time>2021-10-08T12:42:53.000Z</time>
      </trkpt>
      <trkpt lat="43.47343" lon="6.42477">
        <ele>214</ele>
        <time>2021-10-08T12:42:57.000Z</time>
      </trkpt>
      <trkpt lat="43.47347" lon="6.42469">
        <ele>213</ele>
        <time>2021-10-08T12:43:05.000Z</time>
      </trkpt>
      <trkpt lat="43.47349" lon="6.42462">
        <ele>211</ele>
        <time>2021-10-08T12:43:11.000Z</time>
      </trkpt>
      <trkpt lat="43.47351" lon="6.42457">
        <ele>210</ele>
        <time>2021-10-08T12:43:16.000Z</time>
      </trkpt>
      <trkpt lat="43.47353" lon="6.42451">
        <ele>209</ele>
        <time>2021-10-08T12:43:21.000Z</time>
      </trkpt>
      <trkpt lat="43.47355" lon="6.42445">
        <ele>208</ele>
        <time>2021-10-08T12:43:27.000Z</time>
      </trkpt>
      <trkpt lat="43.47355" lon="6.4244">
        <ele>207</ele>
        <time>2021-10-08T12:43:32.000Z</time>
      </trkpt>
      <trkpt lat="43.47356" lon="6.42433">
        <ele>205</ele>
        <time>2021-10-08T12:43:37.000Z</time>
      </trkpt>
      <trkpt lat="43.47358" lon="6.42428">
        <ele>205</ele>
        <time>2021-10-08T12:43:42.000Z</time>
      </trkpt>
      <trkpt lat="43.47362" lon="6.42416">
        <ele>204</ele>
        <time>2021-10-08T12:43:52.000Z</time>
      </trkpt>
      <trkpt lat="43.47364" lon="6.4241">
        <ele>204</ele>
        <time>2021-10-08T12:43:57.000Z</time>
      </trkpt>
      <trkpt lat="43.47369" lon="6.42388">
        <ele>204</ele>
        <time>2021-10-08T12:44:22.000Z</time>
      </trkpt>
      <trkpt lat="43.4737" lon="6.42383">
        <ele>204</ele>
        <time>2021-10-08T12:44:27.000Z</time>
      </trkpt>
      <trkpt lat="43.47372" lon="6.42378">
        <ele>204</ele>
        <time>2021-10-08T12:44:32.000Z</time>
      </trkpt>
      <trkpt lat="43.47373" lon="6.42372">
        <ele>203</ele>
        <time>2021-10-08T12:44:37.000Z</time>
      </trkpt>
      <trkpt lat="43.47374" lon="6.42366">
        <ele>202</ele>
        <time>2021-10-08T12:44:42.000Z</time>
      </trkpt>
      <trkpt lat="43.47374" lon="6.42361">
        <ele>201</ele>
        <time>2021-10-08T12:44:46.000Z</time>
      </trkpt>
      <trkpt lat="43.47376" lon="6.42354">
        <ele>201</ele>
        <time>2021-10-08T12:44:51.000Z</time>
      </trkpt>
      <trkpt lat="43.47378" lon="6.42348">
        <ele>200</ele>
        <time>2021-10-08T12:44:57.000Z</time>
      </trkpt>
      <trkpt lat="43.47379" lon="6.42342">
        <ele>199</ele>
        <time>2021-10-08T12:45:02.000Z</time>
      </trkpt>
      <trkpt lat="43.47381" lon="6.42337">
        <ele>197</ele>
        <time>2021-10-08T12:45:08.000Z</time>
      </trkpt>
      <trkpt lat="43.47385" lon="6.42333">
        <ele>196</ele>
        <time>2021-10-08T12:45:14.000Z</time>
      </trkpt>
      <trkpt lat="43.47388" lon="6.42329">
        <ele>193</ele>
        <time>2021-10-08T12:45:20.000Z</time>
      </trkpt>
      <trkpt lat="43.47391" lon="6.42324">
        <ele>192</ele>
        <time>2021-10-08T12:45:26.000Z</time>
      </trkpt>
      <trkpt lat="43.47398" lon="6.42318">
        <ele>191</ele>
        <time>2021-10-08T12:45:38.000Z</time>
      </trkpt>
      <trkpt lat="43.47404" lon="6.42314">
        <ele>190</ele>
        <time>2021-10-08T12:45:45.000Z</time>
      </trkpt>
      <trkpt lat="43.47418" lon="6.42301">
        <ele>188</ele>
        <time>2021-10-08T12:46:04.000Z</time>
      </trkpt>
      <trkpt lat="43.47432" lon="6.42296">
        <ele>186</ele>
        <time>2021-10-08T12:46:18.000Z</time>
      </trkpt>
      <trkpt lat="43.47436" lon="6.42292">
        <ele>186</ele>
        <time>2021-10-08T12:46:23.000Z</time>
      </trkpt>
      <trkpt lat="43.47439" lon="6.4229">
        <ele>186</ele>
        <time>2021-10-08T12:46:28.000Z</time>
      </trkpt>
      <trkpt lat="43.47451" lon="6.42283">
        <ele>185</ele>
        <time>2021-10-08T12:46:42.000Z</time>
      </trkpt>
      <trkpt lat="43.47462" lon="6.42277">
        <ele>184</ele>
        <time>2021-10-08T12:46:53.000Z</time>
      </trkpt>
      <trkpt lat="43.47466" lon="6.42278">
        <ele>182</ele>
        <time>2021-10-08T12:47:06.000Z</time>
      </trkpt>
      <trkpt lat="43.47469" lon="6.42275">
        <ele>182</ele>
        <time>2021-10-08T12:47:09.000Z</time>
      </trkpt>
      <trkpt lat="43.47475" lon="6.42272">
        <ele>182</ele>
        <time>2021-10-08T12:47:20.000Z</time>
      </trkpt>
      <trkpt lat="43.47478" lon="6.42266">
        <ele>182</ele>
        <time>2021-10-08T12:47:26.000Z</time>
      </trkpt>
      <trkpt lat="43.47503" lon="6.42245">
        <ele>177</ele>
        <time>2021-10-08T12:47:54.000Z</time>
      </trkpt>
      <trkpt lat="43.47506" lon="6.42241">
        <ele>177</ele>
        <time>2021-10-08T12:47:58.000Z</time>
      </trkpt>
      <trkpt lat="43.47509" lon="6.4223">
        <ele>177</ele>
        <time>2021-10-08T12:48:06.000Z</time>
      </trkpt>
      <trkpt lat="43.47509" lon="6.42225">
        <ele>178</ele>
        <time>2021-10-08T12:48:10.000Z</time>
      </trkpt>
      <trkpt lat="43.47505" lon="6.42203">
        <ele>180</ele>
        <time>2021-10-08T12:48:27.000Z</time>
      </trkpt>
      <trkpt lat="43.47503" lon="6.42198">
        <ele>182</ele>
        <time>2021-10-08T12:48:31.000Z</time>
      </trkpt>
      <trkpt lat="43.47501" lon="6.42182">
        <ele>184</ele>
        <time>2021-10-08T12:48:43.000Z</time>
      </trkpt>
      <trkpt lat="43.47496" lon="6.42133">
        <ele>185</ele>
        <time>2021-10-08T12:49:14.000Z</time>
      </trkpt>
      <trkpt lat="43.47495" lon="6.42129">
        <ele>185</ele>
        <time>2021-10-08T12:49:17.000Z</time>
      </trkpt>
      <trkpt lat="43.47493" lon="6.42124">
        <ele>185</ele>
        <time>2021-10-08T12:49:20.000Z</time>
      </trkpt>
      <trkpt lat="43.47488" lon="6.42115">
        <ele>185</ele>
        <time>2021-10-08T12:49:27.000Z</time>
      </trkpt>
      <trkpt lat="43.47487" lon="6.4211">
        <ele>185</ele>
        <time>2021-10-08T12:49:32.000Z</time>
      </trkpt>
      <trkpt lat="43.47485" lon="6.42104">
        <ele>185</ele>
        <time>2021-10-08T12:49:36.000Z</time>
      </trkpt>
      <trkpt lat="43.47485" lon="6.42093">
        <ele>184</ele>
        <time>2021-10-08T12:49:42.000Z</time>
      </trkpt>
      <trkpt lat="43.47486" lon="6.42088">
        <ele>184</ele>
        <time>2021-10-08T12:49:46.000Z</time>
      </trkpt>
      <trkpt lat="43.47485" lon="6.42082">
        <ele>183</ele>
        <time>2021-10-08T12:49:50.000Z</time>
      </trkpt>
      <trkpt lat="43.47485" lon="6.42069">
        <ele>182</ele>
        <time>2021-10-08T12:49:58.000Z</time>
      </trkpt>
      <trkpt lat="43.47482" lon="6.42043">
        <ele>178</ele>
        <time>2021-10-08T12:50:17.000Z</time>
      </trkpt>
      <trkpt lat="43.47483" lon="6.42036">
        <ele>177</ele>
        <time>2021-10-08T12:50:22.000Z</time>
      </trkpt>
      <trkpt lat="43.4748" lon="6.4203">
        <ele>176</ele>
        <time>2021-10-08T12:50:27.000Z</time>
      </trkpt>
      <trkpt lat="43.4748" lon="6.42022">
        <ele>176</ele>
        <time>2021-10-08T12:50:31.000Z</time>
      </trkpt>
      <trkpt lat="43.47478" lon="6.42016">
        <ele>175</ele>
        <time>2021-10-08T12:50:37.000Z</time>
      </trkpt>
      <trkpt lat="43.47479" lon="6.42004">
        <ele>174</ele>
        <time>2021-10-08T12:50:47.000Z</time>
      </trkpt>
      <trkpt lat="43.4748" lon="6.41998">
        <ele>174</ele>
        <time>2021-10-08T12:50:51.000Z</time>
      </trkpt>
      <trkpt lat="43.4748" lon="6.4199">
        <ele>172</ele>
        <time>2021-10-08T12:50:55.000Z</time>
      </trkpt>
      <trkpt lat="43.47483" lon="6.41983">
        <ele>171</ele>
        <time>2021-10-08T12:50:59.000Z</time>
      </trkpt>
      <trkpt lat="43.47487" lon="6.41972">
        <ele>170</ele>
        <time>2021-10-08T12:51:07.000Z</time>
      </trkpt>
      <trkpt lat="43.47496" lon="6.41948">
        <ele>168</ele>
        <time>2021-10-08T12:51:25.000Z</time>
      </trkpt>
      <trkpt lat="43.47497" lon="6.41941">
        <ele>168</ele>
        <time>2021-10-08T12:51:29.000Z</time>
      </trkpt>
      <trkpt lat="43.47496" lon="6.41934">
        <ele>167</ele>
        <time>2021-10-08T12:51:35.000Z</time>
      </trkpt>
      <trkpt lat="43.47498" lon="6.41929">
        <ele>167</ele>
        <time>2021-10-08T12:51:39.000Z</time>
      </trkpt>
      <trkpt lat="43.475" lon="6.41924">
        <ele>166</ele>
        <time>2021-10-08T12:51:43.000Z</time>
      </trkpt>
      <trkpt lat="43.47502" lon="6.41918">
        <ele>167</ele>
        <time>2021-10-08T12:51:56.000Z</time>
      </trkpt>
      <trkpt lat="43.47508" lon="6.41917">
        <ele>171</ele>
        <time>2021-10-08T12:54:15.000Z</time>
      </trkpt>
      <trkpt lat="43.47511" lon="6.41913">
        <ele>175</ele>
        <time>2021-10-08T12:54:45.000Z</time>
      </trkpt>
      <trkpt lat="43.47511" lon="6.41909">
        <ele>175</ele>
        <time>2021-10-08T12:54:52.000Z</time>
      </trkpt>
      <trkpt lat="43.4751" lon="6.41906">
        <ele>176</ele>
        <time>2021-10-08T12:54:58.000Z</time>
      </trkpt>
      <trkpt lat="43.47508" lon="6.41904">
        <ele>176</ele>
        <time>2021-10-08T12:55:01.000Z</time>
      </trkpt>
      <trkpt lat="43.47505" lon="6.41897">
        <ele>178</ele>
        <time>2021-10-08T12:55:10.000Z</time>
      </trkpt>
      <trkpt lat="43.47503" lon="6.41894">
        <ele>178</ele>
        <time>2021-10-08T12:55:13.000Z</time>
      </trkpt>
      <trkpt lat="43.475" lon="6.41893">
        <ele>178</ele>
        <time>2021-10-08T12:55:16.000Z</time>
      </trkpt>
      <trkpt lat="43.47494" lon="6.41889">
        <ele>179</ele>
        <time>2021-10-08T12:55:26.000Z</time>
      </trkpt>
      <trkpt lat="43.47492" lon="6.41889">
        <ele>179</ele>
        <time>2021-10-08T12:55:30.000Z</time>
      </trkpt>
      <trkpt lat="43.4747" lon="6.41887">
        <ele>177</ele>
        <time>2021-10-08T12:55:53.000Z</time>
      </trkpt>
      <trkpt lat="43.47467" lon="6.41886">
        <ele>177</ele>
        <time>2021-10-08T12:55:56.000Z</time>
      </trkpt>
      <trkpt lat="43.47464" lon="6.41886">
        <ele>178</ele>
        <time>2021-10-08T12:55:59.000Z</time>
      </trkpt>
      <trkpt lat="43.47461" lon="6.41885">
        <ele>178</ele>
        <time>2021-10-08T12:56:03.000Z</time>
      </trkpt>
      <trkpt lat="43.47459" lon="6.41884">
        <ele>178</ele>
        <time>2021-10-08T12:56:06.000Z</time>
      </trkpt>
      <trkpt lat="43.47456" lon="6.41886">
        <ele>179</ele>
        <time>2021-10-08T12:56:09.000Z</time>
      </trkpt>
      <trkpt lat="43.47453" lon="6.41886">
        <ele>180</ele>
        <time>2021-10-08T12:56:12.000Z</time>
      </trkpt>
      <trkpt lat="43.47451" lon="6.41888">
        <ele>181</ele>
        <time>2021-10-08T12:56:15.000Z</time>
      </trkpt>
      <trkpt lat="43.47445" lon="6.41893">
        <ele>180</ele>
        <time>2021-10-08T12:56:24.000Z</time>
      </trkpt>
      <trkpt lat="43.47442" lon="6.41896">
        <ele>180</ele>
        <time>2021-10-08T12:56:28.000Z</time>
      </trkpt>
      <trkpt lat="43.47438" lon="6.41898">
        <ele>181</ele>
        <time>2021-10-08T12:56:32.000Z</time>
      </trkpt>
      <trkpt lat="43.47425" lon="6.41899">
        <ele>183</ele>
        <time>2021-10-08T12:56:48.000Z</time>
      </trkpt>
      <trkpt lat="43.47421" lon="6.41901">
        <ele>183</ele>
        <time>2021-10-08T12:56:51.000Z</time>
      </trkpt>
      <trkpt lat="43.47401" lon="6.41903">
        <ele>184</ele>
        <time>2021-10-08T12:57:11.000Z</time>
      </trkpt>
      <trkpt lat="43.47394" lon="6.41902">
        <ele>184</ele>
        <time>2021-10-08T12:57:19.000Z</time>
      </trkpt>
      <trkpt lat="43.47387" lon="6.419">
        <ele>184</ele>
        <time>2021-10-08T12:57:27.000Z</time>
      </trkpt>
      <trkpt lat="43.47379" lon="6.419">
        <ele>182</ele>
        <time>2021-10-08T12:57:33.000Z</time>
      </trkpt>
      <trkpt lat="43.47377" lon="6.419">
        <ele>181</ele>
        <time>2021-10-08T12:57:36.000Z</time>
      </trkpt>
      <trkpt lat="43.47363" lon="6.41899">
        <ele>179</ele>
        <time>2021-10-08T12:57:49.000Z</time>
      </trkpt>
      <trkpt lat="43.4736" lon="6.41897">
        <ele>179</ele>
        <time>2021-10-08T12:57:52.000Z</time>
      </trkpt>
      <trkpt lat="43.47357" lon="6.41897">
        <ele>180</ele>
        <time>2021-10-08T12:57:55.000Z</time>
      </trkpt>
      <trkpt lat="43.47355" lon="6.41896">
        <ele>180</ele>
        <time>2021-10-08T12:58:00.000Z</time>
      </trkpt>
      <trkpt lat="43.47351" lon="6.41895">
        <ele>180</ele>
        <time>2021-10-08T12:58:04.000Z</time>
      </trkpt>
      <trkpt lat="43.47343" lon="6.41894">
        <ele>181</ele>
        <time>2021-10-08T12:58:11.000Z</time>
      </trkpt>
      <trkpt lat="43.4734" lon="6.41892">
        <ele>182</ele>
        <time>2021-10-08T12:58:25.000Z</time>
      </trkpt>
      <trkpt lat="43.47338" lon="6.41889">
        <ele>183</ele>
        <time>2021-10-08T12:58:28.000Z</time>
      </trkpt>
      <trkpt lat="43.47309" lon="6.41884">
        <ele>180</ele>
        <time>2021-10-08T12:58:56.000Z</time>
      </trkpt>
      <trkpt lat="43.47306" lon="6.41883">
        <ele>180</ele>
        <time>2021-10-08T12:58:59.000Z</time>
      </trkpt>
      <trkpt lat="43.47304" lon="6.41881">
        <ele>180</ele>
        <time>2021-10-08T12:59:02.000Z</time>
      </trkpt>
      <trkpt lat="43.47302" lon="6.41883">
        <ele>180</ele>
        <time>2021-10-08T12:59:20.000Z</time>
      </trkpt>
      <trkpt lat="43.47299" lon="6.41883">
        <ele>179</ele>
        <time>2021-10-08T12:59:36.000Z</time>
      </trkpt>
      <trkpt lat="43.47297" lon="6.41884">
        <ele>177</ele>
        <time>2021-10-08T12:59:40.000Z</time>
      </trkpt>
      <trkpt lat="43.47295" lon="6.41885">
        <ele>177</ele>
        <time>2021-10-08T12:59:42.000Z</time>
      </trkpt>
      <trkpt lat="43.47293" lon="6.41884">
        <ele>176</ele>
        <time>2021-10-08T12:59:45.000Z</time>
      </trkpt>
      <trkpt lat="43.47292" lon="6.41884">
        <ele>176</ele>
        <time>2021-10-08T12:59:47.000Z</time>
      </trkpt>
      <trkpt lat="43.47278" lon="6.41886">
        <ele>175</ele>
        <time>2021-10-08T13:00:02.000Z</time>
      </trkpt>
      <trkpt lat="43.47277" lon="6.41888">
        <ele>175</ele>
        <time>2021-10-08T13:00:04.000Z</time>
      </trkpt>
      <trkpt lat="43.47275" lon="6.41887">
        <ele>175</ele>
        <time>2021-10-08T13:00:06.000Z</time>
      </trkpt>
      <trkpt lat="43.47266" lon="6.41891">
        <ele>173</ele>
        <time>2021-10-08T13:00:18.000Z</time>
      </trkpt>
      <trkpt lat="43.47265" lon="6.41892">
        <ele>173</ele>
        <time>2021-10-08T13:00:20.000Z</time>
      </trkpt>
      <trkpt lat="43.47261" lon="6.41893">
        <ele>172</ele>
        <time>2021-10-08T13:00:24.000Z</time>
      </trkpt>
      <trkpt lat="43.47234" lon="6.41909">
        <ele>171</ele>
        <time>2021-10-08T13:00:54.000Z</time>
      </trkpt>
      <trkpt lat="43.47221" lon="6.41916">
        <ele>169</ele>
        <time>2021-10-08T13:01:05.000Z</time>
      </trkpt>
      <trkpt lat="43.47215" lon="6.41917">
        <ele>169</ele>
        <time>2021-10-08T13:01:09.000Z</time>
      </trkpt>
      <trkpt lat="43.47211" lon="6.41919">
        <ele>168</ele>
        <time>2021-10-08T13:01:13.000Z</time>
      </trkpt>
      <trkpt lat="43.47205" lon="6.4192">
        <ele>167</ele>
        <time>2021-10-08T13:01:18.000Z</time>
      </trkpt>
      <trkpt lat="43.47201" lon="6.41919">
        <ele>166</ele>
        <time>2021-10-08T13:01:22.000Z</time>
      </trkpt>
      <trkpt lat="43.47198" lon="6.41919">
        <ele>167</ele>
        <time>2021-10-08T13:01:26.000Z</time>
      </trkpt>
      <trkpt lat="43.47192" lon="6.41921">
        <ele>165</ele>
        <time>2021-10-08T13:01:37.000Z</time>
      </trkpt>
      <trkpt lat="43.47189" lon="6.41923">
        <ele>162</ele>
        <time>2021-10-08T13:01:44.000Z</time>
      </trkpt>
      <trkpt lat="43.47183" lon="6.41925">
        <ele>161</ele>
        <time>2021-10-08T13:01:56.000Z</time>
      </trkpt>
      <trkpt lat="43.4718" lon="6.41924">
        <ele>162</ele>
        <time>2021-10-08T13:02:02.000Z</time>
      </trkpt>
      <trkpt lat="43.4718" lon="6.4192">
        <ele>162</ele>
        <time>2021-10-08T13:02:13.000Z</time>
      </trkpt>
      <trkpt lat="43.47179" lon="6.41917">
        <ele>162</ele>
        <time>2021-10-08T13:02:21.000Z</time>
      </trkpt>
      <trkpt lat="43.47176" lon="6.41915">
        <ele>160</ele>
        <time>2021-10-08T13:02:30.000Z</time>
      </trkpt>
      <trkpt lat="43.47175" lon="6.41918">
        <ele>160</ele>
        <time>2021-10-08T13:02:41.000Z</time>
      </trkpt>
      <trkpt lat="43.47172" lon="6.41917">
        <ele>160</ele>
        <time>2021-10-08T13:02:48.000Z</time>
      </trkpt>
      <trkpt lat="43.47173" lon="6.41914">
        <ele>158</ele>
        <time>2021-10-08T13:03:07.000Z</time>
      </trkpt>
      <trkpt lat="43.47178" lon="6.41916">
        <ele>157</ele>
        <time>2021-10-08T13:03:18.000Z</time>
      </trkpt>
      <trkpt lat="43.4718" lon="6.41918">
        <ele>157</ele>
        <time>2021-10-08T13:03:22.000Z</time>
      </trkpt>
      <trkpt lat="43.4718" lon="6.4192">
        <ele>159</ele>
        <time>2021-10-08T13:03:58.000Z</time>
      </trkpt>
      <trkpt lat="43.47181" lon="6.41923">
        <ele>160</ele>
        <time>2021-10-08T13:04:01.000Z</time>
      </trkpt>
      <trkpt lat="43.47181" lon="6.41926">
        <ele>160</ele>
        <time>2021-10-08T13:04:04.000Z</time>
      </trkpt>
      <trkpt lat="43.47173" lon="6.41945">
        <ele>160</ele>
        <time>2021-10-08T13:04:17.000Z</time>
      </trkpt>
      <trkpt lat="43.47167" lon="6.41973">
        <ele>161</ele>
        <time>2021-10-08T13:04:35.000Z</time>
      </trkpt>
      <trkpt lat="43.47167" lon="6.41976">
        <ele>160</ele>
        <time>2021-10-08T13:04:38.000Z</time>
      </trkpt>
      <trkpt lat="43.47165" lon="6.41979">
        <ele>161</ele>
        <time>2021-10-08T13:04:46.000Z</time>
      </trkpt>
      <trkpt lat="43.47163" lon="6.41981">
        <ele>161</ele>
        <time>2021-10-08T13:04:49.000Z</time>
      </trkpt>
      <trkpt lat="43.47162" lon="6.41983">
        <ele>161</ele>
        <time>2021-10-08T13:04:55.000Z</time>
      </trkpt>
      <trkpt lat="43.47161" lon="6.41986">
        <ele>161</ele>
        <time>2021-10-08T13:04:59.000Z</time>
      </trkpt>
      <trkpt lat="43.47159" lon="6.41984">
        <ele>160</ele>
        <time>2021-10-08T13:05:10.000Z</time>
      </trkpt>
      <trkpt lat="43.47157" lon="6.41982">
        <ele>161</ele>
        <time>2021-10-08T13:05:15.000Z</time>
      </trkpt>
      <trkpt lat="43.47156" lon="6.4198">
        <ele>162</ele>
        <time>2021-10-08T13:05:19.000Z</time>
      </trkpt>
      <trkpt lat="43.47153" lon="6.41977">
        <ele>162</ele>
        <time>2021-10-08T13:05:24.000Z</time>
      </trkpt>
      <trkpt lat="43.47154" lon="6.41974">
        <ele>162</ele>
        <time>2021-10-08T13:05:27.000Z</time>
      </trkpt>
      <trkpt lat="43.47154" lon="6.41972">
        <ele>161</ele>
        <time>2021-10-08T13:05:30.000Z</time>
      </trkpt>
      <trkpt lat="43.47155" lon="6.41966">
        <ele>159</ele>
        <time>2021-10-08T13:05:47.000Z</time>
      </trkpt>
      <trkpt lat="43.47156" lon="6.41962">
        <ele>159</ele>
        <time>2021-10-08T13:05:52.000Z</time>
      </trkpt>
      <trkpt lat="43.47156" lon="6.41958">
        <ele>159</ele>
        <time>2021-10-08T13:05:55.000Z</time>
      </trkpt>
      <trkpt lat="43.47155" lon="6.41955">
        <ele>159</ele>
        <time>2021-10-08T13:05:57.000Z</time>
      </trkpt>
      <trkpt lat="43.47155" lon="6.41951">
        <ele>159</ele>
        <time>2021-10-08T13:06:00.000Z</time>
      </trkpt>
      <trkpt lat="43.47155" lon="6.41948">
        <ele>158</ele>
        <time>2021-10-08T13:06:04.000Z</time>
      </trkpt>
      <trkpt lat="43.47157" lon="6.41945">
        <ele>157</ele>
        <time>2021-10-08T13:06:08.000Z</time>
      </trkpt>
      <trkpt lat="43.47155" lon="6.41942">
        <ele>156</ele>
        <time>2021-10-08T13:06:18.000Z</time>
      </trkpt>
      <trkpt lat="43.47155" lon="6.41938">
        <ele>154</ele>
        <time>2021-10-08T13:06:22.000Z</time>
      </trkpt>
      <trkpt lat="43.47157" lon="6.41936">
        <ele>154</ele>
        <time>2021-10-08T13:06:25.000Z</time>
      </trkpt>
      <trkpt lat="43.47156" lon="6.41928">
        <ele>153</ele>
        <time>2021-10-08T13:06:34.000Z</time>
      </trkpt>
      <trkpt lat="43.47157" lon="6.41925">
        <ele>153</ele>
        <time>2021-10-08T13:06:40.000Z</time>
      </trkpt>
      <trkpt lat="43.47159" lon="6.41922">
        <ele>153</ele>
        <time>2021-10-08T13:06:48.000Z</time>
      </trkpt>
      <trkpt lat="43.47159" lon="6.41919">
        <ele>153</ele>
        <time>2021-10-08T13:06:56.000Z</time>
      </trkpt>
      <trkpt lat="43.4716" lon="6.41915">
        <ele>149</ele>
        <time>2021-10-08T13:08:04.000Z</time>
      </trkpt>
      <trkpt lat="43.47158" lon="6.41912">
        <ele>152</ele>
        <time>2021-10-08T13:08:14.000Z</time>
      </trkpt>
      <trkpt lat="43.47157" lon="6.41909">
        <ele>153</ele>
        <time>2021-10-08T13:08:42.000Z</time>
      </trkpt>
      <trkpt lat="43.47158" lon="6.41906">
        <ele>153</ele>
        <time>2021-10-08T13:09:19.000Z</time>
      </trkpt>
      <trkpt lat="43.47158" lon="6.41906">
        <ele>153</ele>
        <time>2021-10-08T13:10:05.000Z</time>
      </trkpt>
      <trkpt lat="43.47162" lon="6.41905">
        <ele>153</ele>
        <time>2021-10-08T13:11:03.000Z</time>
      </trkpt>
      <trkpt lat="43.47158" lon="6.41908">
        <ele>148</ele>
        <time>2021-10-08T13:12:49.000Z</time>
      </trkpt>
      <trkpt lat="43.47156" lon="6.41924">
        <ele>149</ele>
        <time>2021-10-08T13:13:19.000Z</time>
      </trkpt>
      <trkpt lat="43.47157" lon="6.41932">
        <ele>149</ele>
        <time>2021-10-08T13:13:29.000Z</time>
      </trkpt>
      <trkpt lat="43.47155" lon="6.41934">
        <ele>150</ele>
        <time>2021-10-08T13:13:32.000Z</time>
      </trkpt>
      <trkpt lat="43.47156" lon="6.41938">
        <ele>151</ele>
        <time>2021-10-08T13:13:38.000Z</time>
      </trkpt>
      <trkpt lat="43.47154" lon="6.4194">
        <ele>152</ele>
        <time>2021-10-08T13:13:42.000Z</time>
      </trkpt>
      <trkpt lat="43.47153" lon="6.41941">
        <ele>153</ele>
        <time>2021-10-08T13:13:57.000Z</time>
      </trkpt>
      <trkpt lat="43.47153" lon="6.41946">
        <ele>153</ele>
        <time>2021-10-08T13:14:03.000Z</time>
      </trkpt>
      <trkpt lat="43.47153" lon="6.41952">
        <ele>152</ele>
        <time>2021-10-08T13:14:13.000Z</time>
      </trkpt>
      <trkpt lat="43.47154" lon="6.41954">
        <ele>152</ele>
        <time>2021-10-08T13:14:17.000Z</time>
      </trkpt>
      <trkpt lat="43.47154" lon="6.4196">
        <ele>152</ele>
        <time>2021-10-08T13:14:28.000Z</time>
      </trkpt>
      <trkpt lat="43.47154" lon="6.41965">
        <ele>154</ele>
        <time>2021-10-08T13:14:43.000Z</time>
      </trkpt>
      <trkpt lat="43.47152" lon="6.41969">
        <ele>154</ele>
        <time>2021-10-08T13:15:01.000Z</time>
      </trkpt>
      <trkpt lat="43.47153" lon="6.41973">
        <ele>155</ele>
        <time>2021-10-08T13:15:09.000Z</time>
      </trkpt>
      <trkpt lat="43.47155" lon="6.41975">
        <ele>155</ele>
        <time>2021-10-08T13:15:13.000Z</time>
      </trkpt>
      <trkpt lat="43.47159" lon="6.41985">
        <ele>156</ele>
        <time>2021-10-08T13:15:33.000Z</time>
      </trkpt>
      <trkpt lat="43.47158" lon="6.41988">
        <ele>157</ele>
        <time>2021-10-08T13:16:22.000Z</time>
      </trkpt>
      <trkpt lat="43.47157" lon="6.41991">
        <ele>157</ele>
        <time>2021-10-08T13:16:31.000Z</time>
      </trkpt>
      <trkpt lat="43.47152" lon="6.41995">
        <ele>155</ele>
        <time>2021-10-08T13:18:19.000Z</time>
      </trkpt>
      <trkpt lat="43.4715" lon="6.42001">
        <ele>150</ele>
        <time>2021-10-08T13:18:34.000Z</time>
      </trkpt>
      <trkpt lat="43.47147" lon="6.41999">
        <ele>153</ele>
        <time>2021-10-08T13:19:08.000Z</time>
      </trkpt>
      <trkpt lat="43.47143" lon="6.41999">
        <ele>153</ele>
        <time>2021-10-08T13:19:18.000Z</time>
      </trkpt>
      <trkpt lat="43.47139" lon="6.41995">
        <ele>152</ele>
        <time>2021-10-08T13:19:37.000Z</time>
      </trkpt>
      <trkpt lat="43.47136" lon="6.41991">
        <ele>152</ele>
        <time>2021-10-08T13:19:43.000Z</time>
      </trkpt>
      <trkpt lat="43.47135" lon="6.41985">
        <ele>152</ele>
        <time>2021-10-08T13:19:49.000Z</time>
      </trkpt>
      <trkpt lat="43.47133" lon="6.4198">
        <ele>152</ele>
        <time>2021-10-08T13:19:57.000Z</time>
      </trkpt>
      <trkpt lat="43.47129" lon="6.41971">
        <ele>153</ele>
        <time>2021-10-08T13:20:11.000Z</time>
      </trkpt>
      <trkpt lat="43.47128" lon="6.41967">
        <ele>152</ele>
        <time>2021-10-08T13:20:15.000Z</time>
      </trkpt>
      <trkpt lat="43.47126" lon="6.41963">
        <ele>152</ele>
        <time>2021-10-08T13:20:19.000Z</time>
      </trkpt>
      <trkpt lat="43.47124" lon="6.4196">
        <ele>150</ele>
        <time>2021-10-08T13:20:27.000Z</time>
      </trkpt>
      <trkpt lat="43.47123" lon="6.41954">
        <ele>150</ele>
        <time>2021-10-08T13:20:36.000Z</time>
      </trkpt>
      <trkpt lat="43.4712" lon="6.4195">
        <ele>150</ele>
        <time>2021-10-08T13:20:42.000Z</time>
      </trkpt>
      <trkpt lat="43.47118" lon="6.41946">
        <ele>150</ele>
        <time>2021-10-08T13:20:48.000Z</time>
      </trkpt>
      <trkpt lat="43.47115" lon="6.41943">
        <ele>150</ele>
        <time>2021-10-08T13:20:55.000Z</time>
      </trkpt>
      <trkpt lat="43.47099" lon="6.4193">
        <ele>148</ele>
        <time>2021-10-08T13:21:27.000Z</time>
      </trkpt>
      <trkpt lat="43.47091" lon="6.41926">
        <ele>147</ele>
        <time>2021-10-08T13:21:37.000Z</time>
      </trkpt>
      <trkpt lat="43.47088" lon="6.41925">
        <ele>147</ele>
        <time>2021-10-08T13:21:43.000Z</time>
      </trkpt>
      <trkpt lat="43.47085" lon="6.41922">
        <ele>146</ele>
        <time>2021-10-08T13:21:49.000Z</time>
      </trkpt>
      <trkpt lat="43.47081" lon="6.41921">
        <ele>146</ele>
        <time>2021-10-08T13:21:53.000Z</time>
      </trkpt>
      <trkpt lat="43.47078" lon="6.41919">
        <ele>147</ele>
        <time>2021-10-08T13:21:57.000Z</time>
      </trkpt>
      <trkpt lat="43.47075" lon="6.41916">
        <ele>147</ele>
        <time>2021-10-08T13:22:04.000Z</time>
      </trkpt>
      <trkpt lat="43.47072" lon="6.41913">
        <ele>146</ele>
        <time>2021-10-08T13:22:11.000Z</time>
      </trkpt>
      <trkpt lat="43.47069" lon="6.4191">
        <ele>145</ele>
        <time>2021-10-08T13:22:17.000Z</time>
      </trkpt>
      <trkpt lat="43.47062" lon="6.41908">
        <ele>144</ele>
        <time>2021-10-08T13:22:28.000Z</time>
      </trkpt>
      <trkpt lat="43.4706" lon="6.41905">
        <ele>143</ele>
        <time>2021-10-08T13:22:34.000Z</time>
      </trkpt>
      <trkpt lat="43.47055" lon="6.41902">
        <ele>142</ele>
        <time>2021-10-08T13:22:41.000Z</time>
      </trkpt>
      <trkpt lat="43.4705" lon="6.41896">
        <ele>142</ele>
        <time>2021-10-08T13:22:50.000Z</time>
      </trkpt>
      <trkpt lat="43.47045" lon="6.41897">
        <ele>142</ele>
        <time>2021-10-08T13:22:55.000Z</time>
      </trkpt>
      <trkpt lat="43.47042" lon="6.41894">
        <ele>141</ele>
        <time>2021-10-08T13:23:03.000Z</time>
      </trkpt>
      <trkpt lat="43.47031" lon="6.41887">
        <ele>141</ele>
        <time>2021-10-08T13:23:20.000Z</time>
      </trkpt>
      <trkpt lat="43.47028" lon="6.41883">
        <ele>140</ele>
        <time>2021-10-08T13:23:25.000Z</time>
      </trkpt>
      <trkpt lat="43.47025" lon="6.41881">
        <ele>139</ele>
        <time>2021-10-08T13:23:28.000Z</time>
      </trkpt>
      <trkpt lat="43.47022" lon="6.41879">
        <ele>139</ele>
        <time>2021-10-08T13:23:32.000Z</time>
      </trkpt>
      <trkpt lat="43.47013" lon="6.41876">
        <ele>138</ele>
        <time>2021-10-08T13:23:45.000Z</time>
      </trkpt>
      <trkpt lat="43.47001" lon="6.41877">
        <ele>137</ele>
        <time>2021-10-08T13:24:01.000Z</time>
      </trkpt>
      <trkpt lat="43.46998" lon="6.41878">
        <ele>137</ele>
        <time>2021-10-08T13:24:07.000Z</time>
      </trkpt>
      <trkpt lat="43.46995" lon="6.41881">
        <ele>136</ele>
        <time>2021-10-08T13:24:13.000Z</time>
      </trkpt>
      <trkpt lat="43.46987" lon="6.41883">
        <ele>137</ele>
        <time>2021-10-08T13:24:23.000Z</time>
      </trkpt>
      <trkpt lat="43.46984" lon="6.41885">
        <ele>136</ele>
        <time>2021-10-08T13:24:27.000Z</time>
      </trkpt>
      <trkpt lat="43.4698" lon="6.41886">
        <ele>136</ele>
        <time>2021-10-08T13:24:32.000Z</time>
      </trkpt>
      <trkpt lat="43.46977" lon="6.41888">
        <ele>135</ele>
        <time>2021-10-08T13:24:36.000Z</time>
      </trkpt>
      <trkpt lat="43.46972" lon="6.41893">
        <ele>134</ele>
        <time>2021-10-08T13:24:44.000Z</time>
      </trkpt>
      <trkpt lat="43.46968" lon="6.41896">
        <ele>135</ele>
        <time>2021-10-08T13:24:54.000Z</time>
      </trkpt>
      <trkpt lat="43.46962" lon="6.41899">
        <ele>137</ele>
        <time>2021-10-08T13:25:06.000Z</time>
      </trkpt>
      <trkpt lat="43.46956" lon="6.41904">
        <ele>138</ele>
        <time>2021-10-08T13:25:17.000Z</time>
      </trkpt>
      <trkpt lat="43.46954" lon="6.41908">
        <ele>138</ele>
        <time>2021-10-08T13:25:21.000Z</time>
      </trkpt>
      <trkpt lat="43.46951" lon="6.41911">
        <ele>137</ele>
        <time>2021-10-08T13:25:26.000Z</time>
      </trkpt>
      <trkpt lat="43.46948" lon="6.41914">
        <ele>138</ele>
        <time>2021-10-08T13:25:31.000Z</time>
      </trkpt>
      <trkpt lat="43.46945" lon="6.41915">
        <ele>138</ele>
        <time>2021-10-08T13:25:35.000Z</time>
      </trkpt>
      <trkpt lat="43.46942" lon="6.41917">
        <ele>138</ele>
        <time>2021-10-08T13:25:40.000Z</time>
      </trkpt>
      <trkpt lat="43.46939" lon="6.4192">
        <ele>137</ele>
        <time>2021-10-08T13:25:44.000Z</time>
      </trkpt>
      <trkpt lat="43.46936" lon="6.4192">
        <ele>137</ele>
        <time>2021-10-08T13:25:49.000Z</time>
      </trkpt>
      <trkpt lat="43.46933" lon="6.41924">
        <ele>136</ele>
        <time>2021-10-08T13:25:54.000Z</time>
      </trkpt>
      <trkpt lat="43.46928" lon="6.41927">
        <ele>135</ele>
        <time>2021-10-08T13:26:02.000Z</time>
      </trkpt>
      <trkpt lat="43.46921" lon="6.41929">
        <ele>135</ele>
        <time>2021-10-08T13:26:18.000Z</time>
      </trkpt>
      <trkpt lat="43.46918" lon="6.41931">
        <ele>134</ele>
        <time>2021-10-08T13:26:24.000Z</time>
      </trkpt>
      <trkpt lat="43.46913" lon="6.41938">
        <ele>132</ele>
        <time>2021-10-08T13:26:39.000Z</time>
      </trkpt>
      <trkpt lat="43.46911" lon="6.41942">
        <ele>131</ele>
        <time>2021-10-08T13:26:44.000Z</time>
      </trkpt>
      <trkpt lat="43.46907" lon="6.41945">
        <ele>130</ele>
        <time>2021-10-08T13:26:51.000Z</time>
      </trkpt>
      <trkpt lat="43.46904" lon="6.41946">
        <ele>125</ele>
        <time>2021-10-08T13:27:27.000Z</time>
      </trkpt>
      <trkpt lat="43.46904" lon="6.41949">
        <ele>124</ele>
        <time>2021-10-08T13:27:52.000Z</time>
      </trkpt>
      <trkpt lat="43.46903" lon="6.41951">
        <ele>127</ele>
        <time>2021-10-08T13:28:45.000Z</time>
      </trkpt>
      <trkpt lat="43.46901" lon="6.41952">
        <ele>128</ele>
        <time>2021-10-08T13:28:52.000Z</time>
      </trkpt>
      <trkpt lat="43.46899" lon="6.41952">
        <ele>128</ele>
        <time>2021-10-08T13:28:59.000Z</time>
      </trkpt>
      <trkpt lat="43.46897" lon="6.4195">
        <ele>129</ele>
        <time>2021-10-08T13:29:09.000Z</time>
      </trkpt>
      <trkpt lat="43.46897" lon="6.41947">
        <ele>129</ele>
        <time>2021-10-08T13:29:11.000Z</time>
      </trkpt>
      <trkpt lat="43.46899" lon="6.41946">
        <ele>129</ele>
        <time>2021-10-08T13:29:13.000Z</time>
      </trkpt>
      <trkpt lat="43.46899" lon="6.41944">
        <ele>129</ele>
        <time>2021-10-08T13:29:15.000Z</time>
      </trkpt>
      <trkpt lat="43.46899" lon="6.41941">
        <ele>129</ele>
        <time>2021-10-08T13:29:18.000Z</time>
      </trkpt>
      <trkpt lat="43.46899" lon="6.41939">
        <ele>129</ele>
        <time>2021-10-08T13:29:21.000Z</time>
      </trkpt>
      <trkpt lat="43.46906" lon="6.41926">
        <ele>129</ele>
        <time>2021-10-08T13:29:38.000Z</time>
      </trkpt>
      <trkpt lat="43.46909" lon="6.41921">
        <ele>129</ele>
        <time>2021-10-08T13:29:44.000Z</time>
      </trkpt>
      <trkpt lat="43.4691" lon="6.4192">
        <ele>129</ele>
        <time>2021-10-08T13:29:47.000Z</time>
      </trkpt>
      <trkpt lat="43.46913" lon="6.41917">
        <ele>130</ele>
        <time>2021-10-08T13:29:53.000Z</time>
      </trkpt>
      <trkpt lat="43.46914" lon="6.41915">
        <ele>129</ele>
        <time>2021-10-08T13:29:55.000Z</time>
      </trkpt>
      <trkpt lat="43.46915" lon="6.41914">
        <ele>129</ele>
        <time>2021-10-08T13:29:57.000Z</time>
      </trkpt>
      <trkpt lat="43.46917" lon="6.41913">
        <ele>129</ele>
        <time>2021-10-08T13:29:59.000Z</time>
      </trkpt>
      <trkpt lat="43.46918" lon="6.41911">
        <ele>130</ele>
        <time>2021-10-08T13:30:01.000Z</time>
      </trkpt>
      <trkpt lat="43.46919" lon="6.4191">
        <ele>130</ele>
        <time>2021-10-08T13:30:03.000Z</time>
      </trkpt>
      <trkpt lat="43.46922" lon="6.41907">
        <ele>130</ele>
        <time>2021-10-08T13:30:08.000Z</time>
      </trkpt>
      <trkpt lat="43.46924" lon="6.41905">
        <ele>130</ele>
        <time>2021-10-08T13:30:10.000Z</time>
      </trkpt>
      <trkpt lat="43.46929" lon="6.419">
        <ele>130</ele>
        <time>2021-10-08T13:30:18.000Z</time>
      </trkpt>
      <trkpt lat="43.46937" lon="6.41889">
        <ele>131</ele>
        <time>2021-10-08T13:30:30.000Z</time>
      </trkpt>
      <trkpt lat="43.46938" lon="6.41887">
        <ele>131</ele>
        <time>2021-10-08T13:30:32.000Z</time>
      </trkpt>
      <trkpt lat="43.46952" lon="6.41864">
        <ele>131</ele>
        <time>2021-10-08T13:30:56.000Z</time>
      </trkpt>
      <trkpt lat="43.46954" lon="6.4186">
        <ele>131</ele>
        <time>2021-10-08T13:31:00.000Z</time>
      </trkpt>
      <trkpt lat="43.46957" lon="6.41851">
        <ele>131</ele>
        <time>2021-10-08T13:31:08.000Z</time>
      </trkpt>
      <trkpt lat="43.46958" lon="6.41849">
        <ele>132</ele>
        <time>2021-10-08T13:31:10.000Z</time>
      </trkpt>
      <trkpt lat="43.46959" lon="6.41842">
        <ele>130</ele>
        <time>2021-10-08T13:31:17.000Z</time>
      </trkpt>
      <trkpt lat="43.46962" lon="6.41833">
        <ele>129</ele>
        <time>2021-10-08T13:31:25.000Z</time>
      </trkpt>
      <trkpt lat="43.46966" lon="6.41813">
        <ele>128</ele>
        <time>2021-10-08T13:31:41.000Z</time>
      </trkpt>
      <trkpt lat="43.46968" lon="6.41807">
        <ele>127</ele>
        <time>2021-10-08T13:31:46.000Z</time>
      </trkpt>
      <trkpt lat="43.46968" lon="6.41797">
        <ele>125</ele>
        <time>2021-10-08T13:31:54.000Z</time>
      </trkpt>
      <trkpt lat="43.46971" lon="6.41782">
        <ele>124</ele>
        <time>2021-10-08T13:32:05.000Z</time>
      </trkpt>
      <trkpt lat="43.46973" lon="6.41773">
        <ele>122</ele>
        <time>2021-10-08T13:32:13.000Z</time>
      </trkpt>
      <trkpt lat="43.46974" lon="6.41769">
        <ele>122</ele>
        <time>2021-10-08T13:32:19.000Z</time>
      </trkpt>
      <trkpt lat="43.46979" lon="6.41761">
        <ele>120</ele>
        <time>2021-10-08T13:32:29.000Z</time>
      </trkpt>
      <trkpt lat="43.46982" lon="6.41758">
        <ele>119</ele>
        <time>2021-10-08T13:32:34.000Z</time>
      </trkpt>
      <trkpt lat="43.46986" lon="6.41755">
        <ele>117</ele>
        <time>2021-10-08T13:32:41.000Z</time>
      </trkpt>
      <trkpt lat="43.46994" lon="6.4176">
        <ele>117</ele>
        <time>2021-10-08T13:32:51.000Z</time>
      </trkpt>
      <trkpt lat="43.47004" lon="6.41758">
        <ele>116</ele>
        <time>2021-10-08T13:33:00.000Z</time>
      </trkpt>
      <trkpt lat="43.47007" lon="6.41754">
        <ele>116</ele>
        <time>2021-10-08T13:33:04.000Z</time>
      </trkpt>
      <trkpt lat="43.47009" lon="6.41748">
        <ele>113</ele>
        <time>2021-10-08T13:33:09.000Z</time>
      </trkpt>
      <trkpt lat="43.47008" lon="6.41741">
        <ele>113</ele>
        <time>2021-10-08T13:33:13.000Z</time>
      </trkpt>
      <trkpt lat="43.47008" lon="6.41735">
        <ele>112</ele>
        <time>2021-10-08T13:33:16.000Z</time>
      </trkpt>
      <trkpt lat="43.47005" lon="6.41723">
        <ele>113</ele>
        <time>2021-10-08T13:33:23.000Z</time>
      </trkpt>
      <trkpt lat="43.47003" lon="6.41712">
        <ele>114</ele>
        <time>2021-10-08T13:33:29.000Z</time>
      </trkpt>
      <trkpt lat="43.46999" lon="6.41697">
        <ele>114</ele>
        <time>2021-10-08T13:33:39.000Z</time>
      </trkpt>
      <trkpt lat="43.46998" lon="6.41688">
        <ele>115</ele>
        <time>2021-10-08T13:33:46.000Z</time>
      </trkpt>
      <trkpt lat="43.46998" lon="6.41684">
        <ele>115</ele>
        <time>2021-10-08T13:33:50.000Z</time>
      </trkpt>
      <trkpt lat="43.46997" lon="6.41681">
        <ele>115</ele>
        <time>2021-10-08T13:33:52.000Z</time>
      </trkpt>
      <trkpt lat="43.46998" lon="6.41678">
        <ele>116</ele>
        <time>2021-10-08T13:33:55.000Z</time>
      </trkpt>
      <trkpt lat="43.46999" lon="6.41679">
        <ele>117</ele>
        <time>2021-10-08T13:34:04.000Z</time>
      </trkpt>
      <trkpt lat="43.46999" lon="6.41677">
        <ele>117</ele>
        <time>2021-10-08T13:34:21.000Z</time>
      </trkpt>
      <trkpt lat="43.47" lon="6.41676">
        <ele>117</ele>
        <time>2021-10-08T13:34:23.000Z</time>
      </trkpt>
      <trkpt lat="43.47" lon="6.41665">
        <ele>118</ele>
        <time>2021-10-08T13:34:32.000Z</time>
      </trkpt>
      <trkpt lat="43.47" lon="6.41662">
        <ele>118</ele>
        <time>2021-10-08T13:34:34.000Z</time>
      </trkpt>
      <trkpt lat="43.47002" lon="6.41651">
        <ele>118</ele>
        <time>2021-10-08T13:34:43.000Z</time>
      </trkpt>
      <trkpt lat="43.47003" lon="6.41646">
        <ele>118</ele>
        <time>2021-10-08T13:34:47.000Z</time>
      </trkpt>
      <trkpt lat="43.47004" lon="6.41643">
        <ele>117</ele>
        <time>2021-10-08T13:34:49.000Z</time>
      </trkpt>
      <trkpt lat="43.47005" lon="6.41637">
        <ele>118</ele>
        <time>2021-10-08T13:34:55.000Z</time>
      </trkpt>
      <trkpt lat="43.47016" lon="6.41607">
        <ele>120</ele>
        <time>2021-10-08T13:35:15.000Z</time>
      </trkpt>
      <trkpt lat="43.47023" lon="6.4158">
        <ele>121</ele>
        <time>2021-10-08T13:35:33.000Z</time>
      </trkpt>
      <trkpt lat="43.47027" lon="6.41574">
        <ele>122</ele>
        <time>2021-10-08T13:35:38.000Z</time>
      </trkpt>
      <trkpt lat="43.47029" lon="6.4157">
        <ele>122</ele>
        <time>2021-10-08T13:35:41.000Z</time>
      </trkpt>
      <trkpt lat="43.47032" lon="6.41569">
        <ele>122</ele>
        <time>2021-10-08T13:35:44.000Z</time>
      </trkpt>
      <trkpt lat="43.47038" lon="6.41568">
        <ele>122</ele>
        <time>2021-10-08T13:35:48.000Z</time>
      </trkpt>
      <trkpt lat="43.47043" lon="6.41569">
        <ele>122</ele>
        <time>2021-10-08T13:35:53.000Z</time>
      </trkpt>
      <trkpt lat="43.47046" lon="6.41572">
        <ele>123</ele>
        <time>2021-10-08T13:35:56.000Z</time>
      </trkpt>
      <trkpt lat="43.47057" lon="6.41615">
        <ele>125</ele>
        <time>2021-10-08T13:36:24.000Z</time>
      </trkpt>
      <trkpt lat="43.47057" lon="6.41619">
        <ele>125</ele>
        <time>2021-10-08T13:36:27.000Z</time>
      </trkpt>
      <trkpt lat="43.47061" lon="6.41629">
        <ele>123</ele>
        <time>2021-10-08T13:36:33.000Z</time>
      </trkpt>
      <trkpt lat="43.47064" lon="6.41634">
        <ele>124</ele>
        <time>2021-10-08T13:36:40.000Z</time>
      </trkpt>
      <trkpt lat="43.47068" lon="6.41643">
        <ele>127</ele>
        <time>2021-10-08T13:36:48.000Z</time>
      </trkpt>
      <trkpt lat="43.4707" lon="6.41645">
        <ele>127</ele>
        <time>2021-10-08T13:36:50.000Z</time>
      </trkpt>
      <trkpt lat="43.47072" lon="6.41645">
        <ele>127</ele>
        <time>2021-10-08T13:36:53.000Z</time>
      </trkpt>
      <trkpt lat="43.47082" lon="6.41661">
        <ele>127</ele>
        <time>2021-10-08T13:37:04.000Z</time>
      </trkpt>
      <trkpt lat="43.47094" lon="6.4167">
        <ele>129</ele>
        <time>2021-10-08T13:37:17.000Z</time>
      </trkpt>
      <trkpt lat="43.47097" lon="6.4167">
        <ele>130</ele>
        <time>2021-10-08T13:37:20.000Z</time>
      </trkpt>
      <trkpt lat="43.47104" lon="6.41674">
        <ele>131</ele>
        <time>2021-10-08T13:37:27.000Z</time>
      </trkpt>
      <trkpt lat="43.47131" lon="6.41681">
        <ele>133</ele>
        <time>2021-10-08T13:37:47.000Z</time>
      </trkpt>
      <trkpt lat="43.47136" lon="6.41683">
        <ele>135</ele>
        <time>2021-10-08T13:37:51.000Z</time>
      </trkpt>
      <trkpt lat="43.47147" lon="6.41687">
        <ele>137</ele>
        <time>2021-10-08T13:38:00.000Z</time>
      </trkpt>
      <trkpt lat="43.47158" lon="6.41693">
        <ele>138</ele>
        <time>2021-10-08T13:38:10.000Z</time>
      </trkpt>
      <trkpt lat="43.4716" lon="6.41693">
        <ele>138</ele>
        <time>2021-10-08T13:38:13.000Z</time>
      </trkpt>
      <trkpt lat="43.4717" lon="6.41699">
        <ele>136</ele>
        <time>2021-10-08T13:38:24.000Z</time>
      </trkpt>
      <trkpt lat="43.47186" lon="6.41698">
        <ele>134</ele>
        <time>2021-10-08T13:38:38.000Z</time>
      </trkpt>
      <trkpt lat="43.47215" lon="6.417">
        <ele>130</ele>
        <time>2021-10-08T13:39:01.000Z</time>
      </trkpt>
      <trkpt lat="43.47224" lon="6.41699">
        <ele>128</ele>
        <time>2021-10-08T13:39:08.000Z</time>
      </trkpt>
      <trkpt lat="43.47229" lon="6.41697">
        <ele>128</ele>
        <time>2021-10-08T13:39:13.000Z</time>
      </trkpt>
      <trkpt lat="43.47233" lon="6.41697">
        <ele>128</ele>
        <time>2021-10-08T13:39:18.000Z</time>
      </trkpt>
      <trkpt lat="43.47239" lon="6.41699">
        <ele>129</ele>
        <time>2021-10-08T13:39:25.000Z</time>
      </trkpt>
      <trkpt lat="43.47252" lon="6.41697">
        <ele>131</ele>
        <time>2021-10-08T13:39:35.000Z</time>
      </trkpt>
      <trkpt lat="43.47263" lon="6.41697">
        <ele>133</ele>
        <time>2021-10-08T13:39:44.000Z</time>
      </trkpt>
      <trkpt lat="43.47267" lon="6.41696">
        <ele>132</ele>
        <time>2021-10-08T13:39:48.000Z</time>
      </trkpt>
      <trkpt lat="43.47274" lon="6.41696">
        <ele>132</ele>
        <time>2021-10-08T13:39:56.000Z</time>
      </trkpt>
      <trkpt lat="43.47283" lon="6.41693">
        <ele>132</ele>
        <time>2021-10-08T13:40:02.000Z</time>
      </trkpt>
      <trkpt lat="43.47288" lon="6.41694">
        <ele>132</ele>
        <time>2021-10-08T13:40:05.000Z</time>
      </trkpt>
      <trkpt lat="43.47297" lon="6.41695">
        <ele>133</ele>
        <time>2021-10-08T13:40:11.000Z</time>
      </trkpt>
      <trkpt lat="43.47309" lon="6.41693">
        <ele>132</ele>
        <time>2021-10-08T13:40:21.000Z</time>
      </trkpt>
      <trkpt lat="43.47313" lon="6.41693">
        <ele>132</ele>
        <time>2021-10-08T13:40:24.000Z</time>
      </trkpt>
      <trkpt lat="43.47351" lon="6.41686">
        <ele>135</ele>
        <time>2021-10-08T13:40:54.000Z</time>
      </trkpt>
      <trkpt lat="43.47357" lon="6.41684">
        <ele>136</ele>
        <time>2021-10-08T13:41:03.000Z</time>
      </trkpt>
      <trkpt lat="43.47384" lon="6.41678">
        <ele>135</ele>
        <time>2021-10-08T13:41:27.000Z</time>
      </trkpt>
      <trkpt lat="43.47389" lon="6.41676">
        <ele>134</ele>
        <time>2021-10-08T13:41:32.000Z</time>
      </trkpt>
      <trkpt lat="43.474" lon="6.4167">
        <ele>135</ele>
        <time>2021-10-08T13:41:42.000Z</time>
      </trkpt>
      <trkpt lat="43.47404" lon="6.41669">
        <ele>135</ele>
        <time>2021-10-08T13:41:46.000Z</time>
      </trkpt>
      <trkpt lat="43.47408" lon="6.41668">
        <ele>135</ele>
        <time>2021-10-08T13:41:50.000Z</time>
      </trkpt>
      <trkpt lat="43.47411" lon="6.41666">
        <ele>136</ele>
        <time>2021-10-08T13:41:53.000Z</time>
      </trkpt>
      <trkpt lat="43.47415" lon="6.41664">
        <ele>136</ele>
        <time>2021-10-08T13:41:56.000Z</time>
      </trkpt>
      <trkpt lat="43.47419" lon="6.41664">
        <ele>136</ele>
        <time>2021-10-08T13:42:00.000Z</time>
      </trkpt>
      <trkpt lat="43.47427" lon="6.41667">
        <ele>137</ele>
        <time>2021-10-08T13:42:07.000Z</time>
      </trkpt>
      <trkpt lat="43.47431" lon="6.41667">
        <ele>138</ele>
        <time>2021-10-08T13:42:11.000Z</time>
      </trkpt>
      <trkpt lat="43.47435" lon="6.41668">
        <ele>138</ele>
        <time>2021-10-08T13:44:58.000Z</time>
      </trkpt>
      <trkpt lat="43.47438" lon="6.41669">
        <ele>138</ele>
        <time>2021-10-08T13:45:04.000Z</time>
      </trkpt>
      <trkpt lat="43.47442" lon="6.41667">
        <ele>137</ele>
        <time>2021-10-08T13:45:17.000Z</time>
      </trkpt>
      <trkpt lat="43.47441" lon="6.41665">
        <ele>138</ele>
        <time>2021-10-08T13:45:50.000Z</time>
      </trkpt>
      <trkpt lat="43.47443" lon="6.41663">
        <ele>138</ele>
        <time>2021-10-08T13:45:57.000Z</time>
      </trkpt>
      <trkpt lat="43.47445" lon="6.41661">
        <ele>139</ele>
        <time>2021-10-08T13:46:00.000Z</time>
      </trkpt>
      <trkpt lat="43.47445" lon="6.4166">
        <ele>140</ele>
        <time>2021-10-08T13:46:12.000Z</time>
      </trkpt>
      <trkpt lat="43.47444" lon="6.41657">
        <ele>142</ele>
        <time>2021-10-08T13:46:37.000Z</time>
      </trkpt>
      <trkpt lat="43.47443" lon="6.41654">
        <ele>143</ele>
        <time>2021-10-08T13:46:44.000Z</time>
      </trkpt>
      <trkpt lat="43.47443" lon="6.41655">
        <ele>141</ele>
        <time>2021-10-08T13:48:12.000Z</time>
      </trkpt>
      <trkpt lat="43.47442" lon="6.4165">
        <ele>141</ele>
        <time>2021-10-08T13:48:29.000Z</time>
      </trkpt>
      <trkpt lat="43.47438" lon="6.41646">
        <ele>140</ele>
        <time>2021-10-08T13:48:38.000Z</time>
      </trkpt>
      <trkpt lat="43.47438" lon="6.4164">
        <ele>139</ele>
        <time>2021-10-08T13:48:45.000Z</time>
      </trkpt>
      <trkpt lat="43.47438" lon="6.41636">
        <ele>138</ele>
        <time>2021-10-08T13:48:50.000Z</time>
      </trkpt>
      <trkpt lat="43.47434" lon="6.4162">
        <ele>134</ele>
        <time>2021-10-08T13:49:06.000Z</time>
      </trkpt>
      <trkpt lat="43.47431" lon="6.41604">
        <ele>133</ele>
        <time>2021-10-08T13:49:17.000Z</time>
      </trkpt>
      <trkpt lat="43.47428" lon="6.4159">
        <ele>133</ele>
        <time>2021-10-08T13:49:28.000Z</time>
      </trkpt>
      <trkpt lat="43.47425" lon="6.41577">
        <ele>132</ele>
        <time>2021-10-08T13:49:38.000Z</time>
      </trkpt>
      <trkpt lat="43.47416" lon="6.41556">
        <ele>128</ele>
        <time>2021-10-08T13:50:00.000Z</time>
      </trkpt>
      <trkpt lat="43.47414" lon="6.41552">
        <ele>127</ele>
        <time>2021-10-08T13:50:04.000Z</time>
      </trkpt>
      <trkpt lat="43.47407" lon="6.41548">
        <ele>126</ele>
        <time>2021-10-08T13:50:12.000Z</time>
      </trkpt>
      <trkpt lat="43.47404" lon="6.41545">
        <ele>126</ele>
        <time>2021-10-08T13:50:15.000Z</time>
      </trkpt>
      <trkpt lat="43.47394" lon="6.41537">
        <ele>124</ele>
        <time>2021-10-08T13:50:27.000Z</time>
      </trkpt>
      <trkpt lat="43.47389" lon="6.41531">
        <ele>123</ele>
        <time>2021-10-08T13:50:34.000Z</time>
      </trkpt>
      <trkpt lat="43.47388" lon="6.41526">
        <ele>123</ele>
        <time>2021-10-08T13:50:39.000Z</time>
      </trkpt>
      <trkpt lat="43.4739" lon="6.41524">
        <ele>122</ele>
        <time>2021-10-08T13:50:43.000Z</time>
      </trkpt>
      <trkpt lat="43.47394" lon="6.41523">
        <ele>120</ele>
        <time>2021-10-08T13:50:48.000Z</time>
      </trkpt>
      <trkpt lat="43.47397" lon="6.41525">
        <ele>119</ele>
        <time>2021-10-08T13:50:52.000Z</time>
      </trkpt>
      <trkpt lat="43.4741" lon="6.41529">
        <ele>120</ele>
        <time>2021-10-08T13:51:04.000Z</time>
      </trkpt>
      <trkpt lat="43.47414" lon="6.4153">
        <ele>120</ele>
        <time>2021-10-08T13:51:08.000Z</time>
      </trkpt>
      <trkpt lat="43.47427" lon="6.41536">
        <ele>120</ele>
        <time>2021-10-08T13:51:21.000Z</time>
      </trkpt>
      <trkpt lat="43.47431" lon="6.41539">
        <ele>119</ele>
        <time>2021-10-08T13:51:25.000Z</time>
      </trkpt>
      <trkpt lat="43.47434" lon="6.41541">
        <ele>118</ele>
        <time>2021-10-08T13:51:29.000Z</time>
      </trkpt>
      <trkpt lat="43.47439" lon="6.41541">
        <ele>118</ele>
        <time>2021-10-08T13:51:33.000Z</time>
      </trkpt>
      <trkpt lat="43.47442" lon="6.41538">
        <ele>118</ele>
        <time>2021-10-08T13:51:39.000Z</time>
      </trkpt>
      <trkpt lat="43.47443" lon="6.41533">
        <ele>118</ele>
        <time>2021-10-08T13:51:43.000Z</time>
      </trkpt>
      <trkpt lat="43.47442" lon="6.41528">
        <ele>117</ele>
        <time>2021-10-08T13:51:49.000Z</time>
      </trkpt>
      <trkpt lat="43.47437" lon="6.41522">
        <ele>117</ele>
        <time>2021-10-08T13:51:58.000Z</time>
      </trkpt>
      <trkpt lat="43.47432" lon="6.41518">
        <ele>117</ele>
        <time>2021-10-08T13:52:07.000Z</time>
      </trkpt>
      <trkpt lat="43.47428" lon="6.41516">
        <ele>118</ele>
        <time>2021-10-08T13:52:11.000Z</time>
      </trkpt>
      <trkpt lat="43.47411" lon="6.41504">
        <ele>116</ele>
        <time>2021-10-08T13:52:33.000Z</time>
      </trkpt>
      <trkpt lat="43.47405" lon="6.41498">
        <ele>116</ele>
        <time>2021-10-08T13:52:41.000Z</time>
      </trkpt>
      <trkpt lat="43.47401" lon="6.41497">
        <ele>116</ele>
        <time>2021-10-08T13:52:45.000Z</time>
      </trkpt>
      <trkpt lat="43.47387" lon="6.41485">
        <ele>117</ele>
        <time>2021-10-08T13:53:05.000Z</time>
      </trkpt>
      <trkpt lat="43.47384" lon="6.41481">
        <ele>117</ele>
        <time>2021-10-08T13:53:09.000Z</time>
      </trkpt>
      <trkpt lat="43.47376" lon="6.41468">
        <ele>117</ele>
        <time>2021-10-08T13:53:22.000Z</time>
      </trkpt>
      <trkpt lat="43.47373" lon="6.41463">
        <ele>118</ele>
        <time>2021-10-08T13:53:25.000Z</time>
      </trkpt>
      <trkpt lat="43.4737" lon="6.41454">
        <ele>117</ele>
        <time>2021-10-08T13:53:33.000Z</time>
      </trkpt>
      <trkpt lat="43.47365" lon="6.41447">
        <ele>118</ele>
        <time>2021-10-08T13:53:40.000Z</time>
      </trkpt>
      <trkpt lat="43.47361" lon="6.4144">
        <ele>117</ele>
        <time>2021-10-08T13:53:47.000Z</time>
      </trkpt>
      <trkpt lat="43.47357" lon="6.41437">
        <ele>117</ele>
        <time>2021-10-08T13:53:50.000Z</time>
      </trkpt>
      <trkpt lat="43.47354" lon="6.41429">
        <ele>117</ele>
        <time>2021-10-08T13:53:57.000Z</time>
      </trkpt>
      <trkpt lat="43.47351" lon="6.41425">
        <ele>116</ele>
        <time>2021-10-08T13:54:01.000Z</time>
      </trkpt>
      <trkpt lat="43.47348" lon="6.41421">
        <ele>116</ele>
        <time>2021-10-08T13:54:04.000Z</time>
      </trkpt>
      <trkpt lat="43.47346" lon="6.41416">
        <ele>115</ele>
        <time>2021-10-08T13:54:08.000Z</time>
      </trkpt>
      <trkpt lat="43.47337" lon="6.41402">
        <ele>116</ele>
        <time>2021-10-08T13:54:21.000Z</time>
      </trkpt>
      <trkpt lat="43.47331" lon="6.41393">
        <ele>116</ele>
        <time>2021-10-08T13:54:31.000Z</time>
      </trkpt>
      <trkpt lat="43.47327" lon="6.41379">
        <ele>117</ele>
        <time>2021-10-08T13:54:43.000Z</time>
      </trkpt>
      <trkpt lat="43.47327" lon="6.41376">
        <ele>118</ele>
        <time>2021-10-08T13:54:46.000Z</time>
      </trkpt>
      <trkpt lat="43.47328" lon="6.41371">
        <ele>114</ele>
        <time>2021-10-08T13:55:10.000Z</time>
      </trkpt>
      <trkpt lat="43.47325" lon="6.41359">
        <ele>113</ele>
        <time>2021-10-08T13:55:19.000Z</time>
      </trkpt>
      <trkpt lat="43.47326" lon="6.41345">
        <ele>112</ele>
        <time>2021-10-08T13:55:30.000Z</time>
      </trkpt>
      <trkpt lat="43.47327" lon="6.41341">
        <ele>113</ele>
        <time>2021-10-08T13:55:37.000Z</time>
      </trkpt>
      <trkpt lat="43.47327" lon="6.41336">
        <ele>113</ele>
        <time>2021-10-08T13:55:40.000Z</time>
      </trkpt>
      <trkpt lat="43.47328" lon="6.41332">
        <ele>114</ele>
        <time>2021-10-08T13:55:43.000Z</time>
      </trkpt>
      <trkpt lat="43.4733" lon="6.41323">
        <ele>114</ele>
        <time>2021-10-08T13:55:52.000Z</time>
      </trkpt>
      <trkpt lat="43.4733" lon="6.41317">
        <ele>115</ele>
        <time>2021-10-08T13:55:56.000Z</time>
      </trkpt>
      <trkpt lat="43.47331" lon="6.41312">
        <ele>115</ele>
        <time>2021-10-08T13:56:00.000Z</time>
      </trkpt>
      <trkpt lat="43.47338" lon="6.41291">
        <ele>116</ele>
        <time>2021-10-08T13:56:17.000Z</time>
      </trkpt>
      <trkpt lat="43.47345" lon="6.41278">
        <ele>116</ele>
        <time>2021-10-08T13:56:27.000Z</time>
      </trkpt>
      <trkpt lat="43.47347" lon="6.41274">
        <ele>116</ele>
        <time>2021-10-08T13:56:31.000Z</time>
      </trkpt>
      <trkpt lat="43.47351" lon="6.41265">
        <ele>116</ele>
        <time>2021-10-08T13:56:39.000Z</time>
      </trkpt>
      <trkpt lat="43.47359" lon="6.41259">
        <ele>115</ele>
        <time>2021-10-08T13:56:48.000Z</time>
      </trkpt>
      <trkpt lat="43.47368" lon="6.41251">
        <ele>117</ele>
        <time>2021-10-08T13:56:59.000Z</time>
      </trkpt>
      <trkpt lat="43.47371" lon="6.41247">
        <ele>118</ele>
        <time>2021-10-08T13:57:03.000Z</time>
      </trkpt>
      <trkpt lat="43.47399" lon="6.41217">
        <ele>118</ele>
        <time>2021-10-08T13:57:36.000Z</time>
      </trkpt>
      <trkpt lat="43.47405" lon="6.41209">
        <ele>118</ele>
        <time>2021-10-08T13:57:45.000Z</time>
      </trkpt>
      <trkpt lat="43.47414" lon="6.41206">
        <ele>119</ele>
        <time>2021-10-08T13:57:53.000Z</time>
      </trkpt>
      <trkpt lat="43.47417" lon="6.41203">
        <ele>119</ele>
        <time>2021-10-08T13:57:58.000Z</time>
      </trkpt>
      <trkpt lat="43.4743" lon="6.41196">
        <ele>120</ele>
        <time>2021-10-08T13:58:12.000Z</time>
      </trkpt>
      <trkpt lat="43.47441" lon="6.41193">
        <ele>120</ele>
        <time>2021-10-08T13:58:23.000Z</time>
      </trkpt>
      <trkpt lat="43.47449" lon="6.41194">
        <ele>122</ele>
        <time>2021-10-08T13:58:32.000Z</time>
      </trkpt>
      <trkpt lat="43.47465" lon="6.41191">
        <ele>122</ele>
        <time>2021-10-08T13:58:50.000Z</time>
      </trkpt>
      <trkpt lat="43.47467" lon="6.41187">
        <ele>122</ele>
        <time>2021-10-08T13:58:56.000Z</time>
      </trkpt>
      <trkpt lat="43.4747" lon="6.41189">
        <ele>123</ele>
        <time>2021-10-08T13:59:11.000Z</time>
      </trkpt>
      <trkpt lat="43.47472" lon="6.4119">
        <ele>123</ele>
        <time>2021-10-08T13:59:25.000Z</time>
      </trkpt>
      <trkpt lat="43.47475" lon="6.41188">
        <ele>123</ele>
        <time>2021-10-08T13:59:58.000Z</time>
      </trkpt>
      <trkpt lat="43.47475" lon="6.41191">
        <ele>123</ele>
        <time>2021-10-08T14:00:08.000Z</time>
      </trkpt>
      <trkpt lat="43.47477" lon="6.41194">
        <ele>124</ele>
        <time>2021-10-08T14:00:10.000Z</time>
      </trkpt>
      <trkpt lat="43.47479" lon="6.41196">
        <ele>125</ele>
        <time>2021-10-08T14:00:14.000Z</time>
      </trkpt>
      <trkpt lat="43.47483" lon="6.41198">
        <ele>126</ele>
        <time>2021-10-08T14:00:17.000Z</time>
      </trkpt>
      <trkpt lat="43.47486" lon="6.41198">
        <ele>126</ele>
        <time>2021-10-08T14:00:22.000Z</time>
      </trkpt>
      <trkpt lat="43.47492" lon="6.41197">
        <ele>125</ele>
        <time>2021-10-08T14:01:49.000Z</time>
      </trkpt>
      <trkpt lat="43.47513" lon="6.412">
        <ele>126</ele>
        <time>2021-10-08T14:02:15.000Z</time>
      </trkpt>
      <trkpt lat="43.47532" lon="6.41201">
        <ele>126</ele>
        <time>2021-10-08T14:02:35.000Z</time>
      </trkpt>
      <trkpt lat="43.47562" lon="6.41209">
        <ele>128</ele>
        <time>2021-10-08T14:03:06.000Z</time>
      </trkpt>
      <trkpt lat="43.47581" lon="6.41225">
        <ele>126</ele>
        <time>2021-10-08T14:03:27.000Z</time>
      </trkpt>
      <trkpt lat="43.47585" lon="6.41229">
        <ele>127</ele>
        <time>2021-10-08T14:03:31.000Z</time>
      </trkpt>
      <trkpt lat="43.47589" lon="6.41232">
        <ele>127</ele>
        <time>2021-10-08T14:03:34.000Z</time>
      </trkpt>
      <trkpt lat="43.47598" lon="6.41243">
        <ele>129</ele>
        <time>2021-10-08T14:03:46.000Z</time>
      </trkpt>
      <trkpt lat="43.47601" lon="6.41248">
        <ele>129</ele>
        <time>2021-10-08T14:03:50.000Z</time>
      </trkpt>
      <trkpt lat="43.47618" lon="6.41273">
        <ele>131</ele>
        <time>2021-10-08T14:04:12.000Z</time>
      </trkpt>
      <trkpt lat="43.4762" lon="6.41279">
        <ele>131</ele>
        <time>2021-10-08T14:04:17.000Z</time>
      </trkpt>
      <trkpt lat="43.47623" lon="6.41285">
        <ele>132</ele>
        <time>2021-10-08T14:04:21.000Z</time>
      </trkpt>
      <trkpt lat="43.47625" lon="6.4129">
        <ele>133</ele>
        <time>2021-10-08T14:04:25.000Z</time>
      </trkpt>
      <trkpt lat="43.47627" lon="6.41295">
        <ele>134</ele>
        <time>2021-10-08T14:04:28.000Z</time>
      </trkpt>
      <trkpt lat="43.47629" lon="6.41301">
        <ele>134</ele>
        <time>2021-10-08T14:04:33.000Z</time>
      </trkpt>
      <trkpt lat="43.47629" lon="6.41305">
        <ele>134</ele>
        <time>2021-10-08T14:04:35.000Z</time>
      </trkpt>
      <trkpt lat="43.47629" lon="6.41313">
        <ele>135</ele>
        <time>2021-10-08T14:04:39.000Z</time>
      </trkpt>
      <trkpt lat="43.47631" lon="6.41325">
        <ele>136</ele>
        <time>2021-10-08T14:04:47.000Z</time>
      </trkpt>
      <trkpt lat="43.47633" lon="6.41328">
        <ele>136</ele>
        <time>2021-10-08T14:04:51.000Z</time>
      </trkpt>
      <trkpt lat="43.47634" lon="6.4134">
        <ele>136</ele>
        <time>2021-10-08T14:05:00.000Z</time>
      </trkpt>
      <trkpt lat="43.47634" lon="6.41372">
        <ele>139</ele>
        <time>2021-10-08T14:05:22.000Z</time>
      </trkpt>
      <trkpt lat="43.47631" lon="6.4138">
        <ele>138</ele>
        <time>2021-10-08T14:05:28.000Z</time>
      </trkpt>
      <trkpt lat="43.4763" lon="6.41416">
        <ele>137</ele>
        <time>2021-10-08T14:05:53.000Z</time>
      </trkpt>
      <trkpt lat="43.47629" lon="6.4142">
        <ele>137</ele>
        <time>2021-10-08T14:05:56.000Z</time>
      </trkpt>
      <trkpt lat="43.4763" lon="6.4144">
        <ele>138</ele>
        <time>2021-10-08T14:06:08.000Z</time>
      </trkpt>
      <trkpt lat="43.4763" lon="6.41444">
        <ele>138</ele>
        <time>2021-10-08T14:06:11.000Z</time>
      </trkpt>
      <trkpt lat="43.47619" lon="6.4147">
        <ele>139</ele>
        <time>2021-10-08T14:06:30.000Z</time>
      </trkpt>
      <trkpt lat="43.47619" lon="6.41486">
        <ele>139</ele>
        <time>2021-10-08T14:06:41.000Z</time>
      </trkpt>
      <trkpt lat="43.4762" lon="6.4149">
        <ele>137</ele>
        <time>2021-10-08T14:06:45.000Z</time>
      </trkpt>
      <trkpt lat="43.47621" lon="6.41494">
        <ele>136</ele>
        <time>2021-10-08T14:07:17.000Z</time>
      </trkpt>
      <trkpt lat="43.47623" lon="6.415">
        <ele>135</ele>
        <time>2021-10-08T14:07:21.000Z</time>
      </trkpt>
      <trkpt lat="43.47625" lon="6.41504">
        <ele>135</ele>
        <time>2021-10-08T14:07:26.000Z</time>
      </trkpt>
      <trkpt lat="43.47625" lon="6.41513">
        <ele>137</ele>
        <time>2021-10-08T14:08:10.000Z</time>
      </trkpt>
      <trkpt lat="43.47622" lon="6.41512">
        <ele>138</ele>
        <time>2021-10-08T14:09:16.000Z</time>
      </trkpt>
      <trkpt lat="43.47623" lon="6.41516">
        <ele>138</ele>
        <time>2021-10-08T14:10:24.000Z</time>
      </trkpt>
      <trkpt lat="43.47628" lon="6.41519">
        <ele>138</ele>
        <time>2021-10-08T14:10:31.000Z</time>
      </trkpt>
      <trkpt lat="43.47631" lon="6.41523">
        <ele>138</ele>
        <time>2021-10-08T14:10:35.000Z</time>
      </trkpt>
      <trkpt lat="43.47652" lon="6.41528">
        <ele>137</ele>
        <time>2021-10-08T14:10:56.000Z</time>
      </trkpt>
      <trkpt lat="43.47661" lon="6.41531">
        <ele>136</ele>
        <time>2021-10-08T14:11:06.000Z</time>
      </trkpt>
      <trkpt lat="43.4768" lon="6.41534">
        <ele>137</ele>
        <time>2021-10-08T14:11:22.000Z</time>
      </trkpt>
      <trkpt lat="43.47684" lon="6.41535">
        <ele>137</ele>
        <time>2021-10-08T14:11:27.000Z</time>
      </trkpt>
      <trkpt lat="43.47689" lon="6.41535">
        <ele>136</ele>
        <time>2021-10-08T14:11:31.000Z</time>
      </trkpt>
      <trkpt lat="43.47722" lon="6.41551">
        <ele>138</ele>
        <time>2021-10-08T14:12:03.000Z</time>
      </trkpt>
      <trkpt lat="43.47727" lon="6.41552">
        <ele>138</ele>
        <time>2021-10-08T14:12:07.000Z</time>
      </trkpt>
      <trkpt lat="43.47732" lon="6.41553">
        <ele>138</ele>
        <time>2021-10-08T14:12:11.000Z</time>
      </trkpt>
      <trkpt lat="43.47736" lon="6.41555">
        <ele>138</ele>
        <time>2021-10-08T14:12:15.000Z</time>
      </trkpt>
      <trkpt lat="43.47741" lon="6.41556">
        <ele>137</ele>
        <time>2021-10-08T14:12:20.000Z</time>
      </trkpt>
      <trkpt lat="43.47746" lon="6.41556">
        <ele>137</ele>
        <time>2021-10-08T14:12:25.000Z</time>
      </trkpt>
      <trkpt lat="43.47765" lon="6.41554">
        <ele>136</ele>
        <time>2021-10-08T14:12:42.000Z</time>
      </trkpt>
      <trkpt lat="43.47778" lon="6.41546">
        <ele>135</ele>
        <time>2021-10-08T14:12:57.000Z</time>
      </trkpt>
      <trkpt lat="43.47787" lon="6.41538">
        <ele>136</ele>
        <time>2021-10-08T14:13:10.000Z</time>
      </trkpt>
      <trkpt lat="43.47792" lon="6.41536">
        <ele>135</ele>
        <time>2021-10-08T14:13:14.000Z</time>
      </trkpt>
      <trkpt lat="43.478" lon="6.41532">
        <ele>135</ele>
        <time>2021-10-08T14:13:23.000Z</time>
      </trkpt>
      <trkpt lat="43.47806" lon="6.41532">
        <ele>137</ele>
        <time>2021-10-08T14:13:27.000Z</time>
      </trkpt>
      <trkpt lat="43.47827" lon="6.41521">
        <ele>137</ele>
        <time>2021-10-08T14:13:49.000Z</time>
      </trkpt>
      <trkpt lat="43.47833" lon="6.41519">
        <ele>139</ele>
        <time>2021-10-08T14:13:57.000Z</time>
      </trkpt>
      <trkpt lat="43.47844" lon="6.41518">
        <ele>137</ele>
        <time>2021-10-08T14:14:07.000Z</time>
      </trkpt>
      <trkpt lat="43.47848" lon="6.41517">
        <ele>137</ele>
        <time>2021-10-08T14:14:11.000Z</time>
      </trkpt>
      <trkpt lat="43.47851" lon="6.41517">
        <ele>136</ele>
        <time>2021-10-08T14:14:15.000Z</time>
      </trkpt>
      <trkpt lat="43.47888" lon="6.4152">
        <ele>137</ele>
        <time>2021-10-08T14:14:47.000Z</time>
      </trkpt>
      <trkpt lat="43.47892" lon="6.4152">
        <ele>137</ele>
        <time>2021-10-08T14:14:51.000Z</time>
      </trkpt>
      <trkpt lat="43.47896" lon="6.41523">
        <ele>137</ele>
        <time>2021-10-08T14:14:55.000Z</time>
      </trkpt>
      <trkpt lat="43.47904" lon="6.41526">
        <ele>137</ele>
        <time>2021-10-08T14:15:05.000Z</time>
      </trkpt>
      <trkpt lat="43.4791" lon="6.41536">
        <ele>139</ele>
        <time>2021-10-08T14:15:14.000Z</time>
      </trkpt>
      <trkpt lat="43.47913" lon="6.41541">
        <ele>139</ele>
        <time>2021-10-08T14:15:19.000Z</time>
      </trkpt>
      <trkpt lat="43.47916" lon="6.41546">
        <ele>141</ele>
        <time>2021-10-08T14:15:24.000Z</time>
      </trkpt>
      <trkpt lat="43.47923" lon="6.41561">
        <ele>143</ele>
        <time>2021-10-08T14:15:38.000Z</time>
      </trkpt>
      <trkpt lat="43.47922" lon="6.41575">
        <ele>144</ele>
        <time>2021-10-08T14:15:45.000Z</time>
      </trkpt>
      <trkpt lat="43.47927" lon="6.41602">
        <ele>143</ele>
        <time>2021-10-08T14:16:03.000Z</time>
      </trkpt>
      <trkpt lat="43.47928" lon="6.41608">
        <ele>144</ele>
        <time>2021-10-08T14:16:07.000Z</time>
      </trkpt>
      <trkpt lat="43.47931" lon="6.41616">
        <ele>146</ele>
        <time>2021-10-08T14:16:14.000Z</time>
      </trkpt>
      <trkpt lat="43.47933" lon="6.41622">
        <ele>145</ele>
        <time>2021-10-08T14:16:19.000Z</time>
      </trkpt>
      <trkpt lat="43.47935" lon="6.41633">
        <ele>147</ele>
        <time>2021-10-08T14:16:26.000Z</time>
      </trkpt>
      <trkpt lat="43.47937" lon="6.41637">
        <ele>147</ele>
        <time>2021-10-08T14:16:30.000Z</time>
      </trkpt>
      <trkpt lat="43.47939" lon="6.41644">
        <ele>147</ele>
        <time>2021-10-08T14:16:34.000Z</time>
      </trkpt>
      <trkpt lat="43.47939" lon="6.4166">
        <ele>146</ele>
        <time>2021-10-08T14:16:45.000Z</time>
      </trkpt>
      <trkpt lat="43.47941" lon="6.41665">
        <ele>146</ele>
        <time>2021-10-08T14:16:49.000Z</time>
      </trkpt>
      <trkpt lat="43.47941" lon="6.4167">
        <ele>146</ele>
        <time>2021-10-08T14:16:53.000Z</time>
      </trkpt>
      <trkpt lat="43.47942" lon="6.41676">
        <ele>146</ele>
        <time>2021-10-08T14:16:57.000Z</time>
      </trkpt>
      <trkpt lat="43.47943" lon="6.41682">
        <ele>146</ele>
        <time>2021-10-08T14:17:01.000Z</time>
      </trkpt>
      <trkpt lat="43.47941" lon="6.41703">
        <ele>146</ele>
        <time>2021-10-08T14:17:13.000Z</time>
      </trkpt>
      <trkpt lat="43.47941" lon="6.4172">
        <ele>148</ele>
        <time>2021-10-08T14:17:24.000Z</time>
      </trkpt>
      <trkpt lat="43.4794" lon="6.41729">
        <ele>149</ele>
        <time>2021-10-08T14:17:30.000Z</time>
      </trkpt>
      <trkpt lat="43.47941" lon="6.41775">
        <ele>146</ele>
        <time>2021-10-08T14:17:57.000Z</time>
      </trkpt>
      <trkpt lat="43.47942" lon="6.41781">
        <ele>147</ele>
        <time>2021-10-08T14:18:01.000Z</time>
      </trkpt>
      <trkpt lat="43.47945" lon="6.41811">
        <ele>150</ele>
        <time>2021-10-08T14:18:18.000Z</time>
      </trkpt>
      <trkpt lat="43.47947" lon="6.41824">
        <ele>150</ele>
        <time>2021-10-08T14:18:26.000Z</time>
      </trkpt>
      <trkpt lat="43.47951" lon="6.41833">
        <ele>150</ele>
        <time>2021-10-08T14:18:33.000Z</time>
      </trkpt>
      <trkpt lat="43.47954" lon="6.41837">
        <ele>150</ele>
        <time>2021-10-08T14:18:38.000Z</time>
      </trkpt>
      <trkpt lat="43.47958" lon="6.41837">
        <ele>150</ele>
        <time>2021-10-08T14:18:45.000Z</time>
      </trkpt>
      <trkpt lat="43.47962" lon="6.41835">
        <ele>150</ele>
        <time>2021-10-08T14:18:49.000Z</time>
      </trkpt>
      <trkpt lat="43.47974" lon="6.41828">
        <ele>149</ele>
        <time>2021-10-08T14:19:02.000Z</time>
      </trkpt>
      <trkpt lat="43.47978" lon="6.41825">
        <ele>149</ele>
        <time>2021-10-08T14:19:06.000Z</time>
      </trkpt>
      <trkpt lat="43.47981" lon="6.41821">
        <ele>149</ele>
        <time>2021-10-08T14:19:09.000Z</time>
      </trkpt>
      <trkpt lat="43.4799" lon="6.41814">
        <ele>148</ele>
        <time>2021-10-08T14:19:19.000Z</time>
      </trkpt>
      <trkpt lat="43.47995" lon="6.41812">
        <ele>148</ele>
        <time>2021-10-08T14:19:23.000Z</time>
      </trkpt>
      <trkpt lat="43.47998" lon="6.41809">
        <ele>148</ele>
        <time>2021-10-08T14:19:26.000Z</time>
      </trkpt>
      <trkpt lat="43.48003" lon="6.41807">
        <ele>148</ele>
        <time>2021-10-08T14:19:30.000Z</time>
      </trkpt>
      <trkpt lat="43.48027" lon="6.41793">
        <ele>148</ele>
        <time>2021-10-08T14:19:52.000Z</time>
      </trkpt>
      <trkpt lat="43.48035" lon="6.4179">
        <ele>150</ele>
        <time>2021-10-08T14:19:59.000Z</time>
      </trkpt>
      <trkpt lat="43.48061" lon="6.41774">
        <ele>149</ele>
        <time>2021-10-08T14:20:24.000Z</time>
      </trkpt>
      <trkpt lat="43.48068" lon="6.41768">
        <ele>149</ele>
        <time>2021-10-08T14:20:31.000Z</time>
      </trkpt>
      <trkpt lat="43.48071" lon="6.41766">
        <ele>149</ele>
        <time>2021-10-08T14:20:34.000Z</time>
      </trkpt>
      <trkpt lat="43.48077" lon="6.41763">
        <ele>148</ele>
        <time>2021-10-08T14:20:40.000Z</time>
      </trkpt>
      <trkpt lat="43.4808" lon="6.41759">
        <ele>148</ele>
        <time>2021-10-08T14:20:44.000Z</time>
      </trkpt>
      <trkpt lat="43.48082" lon="6.41755">
        <ele>149</ele>
        <time>2021-10-08T14:20:47.000Z</time>
      </trkpt>
      <trkpt lat="43.48088" lon="6.41748">
        <ele>148</ele>
        <time>2021-10-08T14:20:56.000Z</time>
      </trkpt>
      <trkpt lat="43.48092" lon="6.41744">
        <ele>148</ele>
        <time>2021-10-08T14:21:00.000Z</time>
      </trkpt>
      <trkpt lat="43.4812" lon="6.4171">
        <ele>150</ele>
        <time>2021-10-08T14:21:30.000Z</time>
      </trkpt>
      <trkpt lat="43.48138" lon="6.41689">
        <ele>151</ele>
        <time>2021-10-08T14:21:50.000Z</time>
      </trkpt>
      <trkpt lat="43.48152" lon="6.41663">
        <ele>152</ele>
        <time>2021-10-08T14:22:09.000Z</time>
      </trkpt>
      <trkpt lat="43.48155" lon="6.41657">
        <ele>152</ele>
        <time>2021-10-08T14:22:13.000Z</time>
      </trkpt>
      <trkpt lat="43.48175" lon="6.41628">
        <ele>152</ele>
        <time>2021-10-08T14:22:37.000Z</time>
      </trkpt>
      <trkpt lat="43.48178" lon="6.41624">
        <ele>152</ele>
        <time>2021-10-08T14:22:40.000Z</time>
      </trkpt>
      <trkpt lat="43.48184" lon="6.41616">
        <ele>153</ele>
        <time>2021-10-08T14:22:46.000Z</time>
      </trkpt>
      <trkpt lat="43.48187" lon="6.4161">
        <ele>152</ele>
        <time>2021-10-08T14:22:50.000Z</time>
      </trkpt>
      <trkpt lat="43.48189" lon="6.41598">
        <ele>151</ele>
        <time>2021-10-08T14:22:58.000Z</time>
      </trkpt>
      <trkpt lat="43.4819" lon="6.41593">
        <ele>151</ele>
        <time>2021-10-08T14:23:01.000Z</time>
      </trkpt>
      <trkpt lat="43.48191" lon="6.41588">
        <ele>151</ele>
        <time>2021-10-08T14:23:04.000Z</time>
      </trkpt>
      <trkpt lat="43.48194" lon="6.41578">
        <ele>151</ele>
        <time>2021-10-08T14:23:11.000Z</time>
      </trkpt>
      <trkpt lat="43.48199" lon="6.41567">
        <ele>151</ele>
        <time>2021-10-08T14:23:18.000Z</time>
      </trkpt>
      <trkpt lat="43.48202" lon="6.41564">
        <ele>151</ele>
        <time>2021-10-08T14:23:21.000Z</time>
      </trkpt>
      <trkpt lat="43.48206" lon="6.41561">
        <ele>151</ele>
        <time>2021-10-08T14:23:26.000Z</time>
      </trkpt>
      <trkpt lat="43.48222" lon="6.4156">
        <ele>150</ele>
        <time>2021-10-08T14:23:41.000Z</time>
      </trkpt>
      <trkpt lat="43.48226" lon="6.4156">
        <ele>150</ele>
        <time>2021-10-08T14:23:45.000Z</time>
      </trkpt>
      <trkpt lat="43.48243" lon="6.4156">
        <ele>151</ele>
        <time>2021-10-08T14:24:00.000Z</time>
      </trkpt>
      <trkpt lat="43.48252" lon="6.41559">
        <ele>150</ele>
        <time>2021-10-08T14:24:08.000Z</time>
      </trkpt>
    </trkseg>
  </trk>
</gpx>